Return to Metar
SPECI CYNL 280005Z AUTO 26004KT 9SM FEW006 SCT017 BKN045 14/13 A2983 RMK AO1 PRESRR SLP097
METAR CYNL 280000Z AUTO 26004KT 9SM SCT010 BKN034 BKN074 14/13 A2983 RMK AO1 PRESRR SLP096
SPECI CYNL 272359Z AUTO 26003KT 9SM FEW006 SCT015 BKN030 14/13 A2983 RMK AO1 PRESRR SLP097
SPECI CYNL 272356Z AUTO 27004G31KT 4SM VV029 14/13 A2983 RMK AO1 SLP099
SPECI CYNL 272354Z AUTO 29007G31KT 2SM VV028 13/12 A2983 RMK AO1 SLP100
SPECI CYNL 272353Z AUTO 29007G31KT 1 1/2SM VV024 13/12 A2983 RMK AO1 SLP101
SPECI CYNL 272352Z AUTO 30008G31KT 1SM VV019 13/12 A2983 RMK AO1 SLP102
SPECI CYNL 272351Z AUTO 30009G31KT 3/4SM VV015 13/12 A2983 RMK AO1 SLP102
SPECI CYNL 272350Z AUTO 30009G33KT 1/4SM VV013 13/12 A2983 RMK AO1 SLP102
SPECI CYNL 272344Z AUTO 31015G33KT 1/8SM VV014 14/12 A2983 RMK AO1 SLP102
SPECI CYNL 272341Z AUTO 29023G33KT 260V330 1/8SM FEW013 SCT039 15/12 A2982 RMK AO1 SLP095
SPECI CYNL 272339Z AUTO 30016G32KT 5/8SM FEW012 SCT054 17/13 A2981 RMK AO1 SLP091
SPECI CYNL 272338Z AUTO 30011G27KT 2SM FEW036 SCT084 18/13 A2981 RMK AO1 SLP089
METAR CYNL 272300Z AUTO 28009KT 9SM CLR 19/12 A2979 RMK AO1 SLP079
METAR CYNL 272200Z AUTO 29004KT 9SM FEW009 17/14 A2978 RMK AO1 PRESFR SLP079
SPECI CYNL 272143Z AUTO 35005KT 9SM SCT009 BKN030 14/12 A2978 RMK AO1 PRESRR SLP083
SPECI CYNL 272141Z AUTO 35006KT 9SM FEW008 SCT012 BKN026 14/12 A2978 RMK AO1 PRESRR SLP083
SPECI CYNL 272137Z AUTO 00006KT 8SM VV016 13/11 A2978 RMK AO1 PRESRR SLP084
SPECI CYNL 272135Z AUTO 35006KT 7SM VV010 13/12 A2978 RMK AO1 PRESRR SLP085
SPECI CYNL 272134Z AUTO 35006KT 7SM VV009 13/12 A2978 RMK AO1 PRESRR SLP085
SPECI CYNL 272133Z AUTO 35006KT 7SM VV012 13/12 A2978 RMK AO1 PRESRR SLP085
SPECI CYNL 272123Z AUTO 32008KT 7SM VV024 13/11 A2979 RMK AO1 PRESRR SLP089
SPECI CYNL 272122Z AUTO 33009KT 8SM VV026 13/11 A2979 RMK AO1 PRESRR SLP089
SPECI CYNL 272108Z AUTO 31009G21KT 3SM FEW013 BKN042 BKN052 13/11 A2981 RMK AO1 PRESRR SLP093
METAR CYNL 272100Z AUTO 28014G21KT 2 1/2SM VV036 13/10 A2982 RMK AO1 PRESRR SLP100
SPECI CYNL 272054Z AUTO 27013G22KT 2 1/2SM FEW010 BKN052 13/10 A2983 RMK AO1 SLP099
SPECI CYNL 272041Z AUTO 29017G30KT 5SM FEW008 15/10 A2980 RMK AO1 SLP090
METAR CYNL 272000Z AUTO 25009G15KT 9SM 22/09 A2973 RMK AO1 SLP056
METAR CYNL 271900Z AUTO 23005KT 9SM FEW110 20/11 A2973 RMK AO1 SLP061
METAR CYNL 271800Z AUTO 28008G15KT 9SM FEW062 24/07 A2975 RMK AO1 SLP060
METAR CYNL 271700Z AUTO 25008G17KT 9SM CLR 23/09 A2976 RMK AO1 SLP064
METAR CYNL 271600Z AUTO 24007KT 9SM FEW080 21/09 A2976 RMK AO1 SLP068
METAR CYNL 271500Z AUTO 23008KT 9SM CLR 21/09 A2977 RMK AO1 SLP070
METAR CYNL 271400Z AUTO 27007KT 9SM CLR 18/10 A2978 RMK AO1 SLP074
METAR CYNL 271300Z AUTO 25006KT 9SM CLR 16/10 A2979 RMK AO1 SLP076
METAR CYNL 271200Z AUTO 25005KT 9SM CLR 14/10 A2979 RMK AO1 SLP077
METAR CYNL 271100Z AUTO 23005KT 9SM CLR 13/10 A2978 RMK AO1 SLP075
METAR CYNL 271000Z AUTO 24006KT 9SM CLR 13/10 A2979 RMK AO1 SLP077
METAR CYNL 270900Z AUTO 24004KT 9SM CLR 14/10 A2979 RMK AO1 SLP077
METAR CYNL 270800Z AUTO 25005KT 9SM CLR 14/09 A2979 RMK AO1 SLP079
METAR CYNL 270700Z AUTO 23006KT 9SM CLR 15/08 A2980 RMK AO1 SLP080
METAR CYNL 270600Z AUTO 22006KT 9SM CLR 15/09 A2980 RMK AO1 SLP082
METAR CYNL 270500Z AUTO 23005KT 9SM CLR 16/09 A2980 RMK AO1 SLP082
METAR CYNL 270400Z AUTO 23005KT 9SM CLR 16/09 A2980 RMK AO1 SLP083
METAR CYNL 270300Z AUTO 24006KT 9SM FEW110 18/09 A2981 RMK AO1 SLP083
METAR CYNL 270200Z AUTO 24011G18KT 9SM CLR 21/09 A2981 RMK AO1 SLP082
METAR CYNL 270100Z AUTO 22007KT 9SM FEW066 SCT078 21/07 A2981 RMK AO1 SLP086
METAR CYNL 270000Z AUTO 24007KT 9SM SCT066 22/06 A2982 RMK AO1 SLP091
METAR CYNL 262300Z AUTO 29010G16KT 9SM CLR 22/04 A2983 RMK AO1 SLP097
SPECI CYNL 262217Z AUTO 28014G19KT 9SM CLR 22/01 A2984 RMK AO1 WSHFT (22)17 SLP106
METAR CYNL 262200Z AUTO 24010G20KT 9SM CLR 22/M02 A2985 RMK AO1 SLP108
METAR CYNL 262100Z AUTO 24010KT 9SM CLR 21/M02 A2986 RMK AO1 SLP111
METAR CYNL 262000Z AUTO 26008KT 9SM CLR 21/01 A2987 RMK AO1 SLP116
METAR CYNL 261900Z AUTO 20008KT 9SM CLR 20/02 A2988 RMK AO1 SLP120
METAR CYNL 261800Z AUTO 25007KT 9SM CLR 18/02 A2989 RMK AO1 SLP125
METAR CYNL 261700Z AUTO 22008KT 9SM CLR 18/03 A2990 RMK AO1 SLP128
METAR CYNL 261600Z AUTO 23007KT 9SM CLR 17/04 A2992 RMK AO1 SLP131
METAR CYNL 261500Z AUTO 23004KT 9SM CLR 16/03 A2993 RMK AO1 SLP134
METAR CYNL 261400Z AUTO 00000KT 9SM CLR 15/06 A2993 RMK AO1 SLP132
METAR CYNL 261300Z AUTO 00000KT 9SM CLR 12/07 A2993 RMK AO1 SLP134
METAR CYNL 261200Z AUTO 00000KT 9SM CLR 09/06 A2993 RMK AO1 SLP136
SPECI CYNL 261107Z AUTO 30004KT 9SM CLR 04/04 A2992 RMK AO1 SLP139
SPECI CYNL 261106Z AUTO 29004KT 1 1/2SM CLR 04/04 A2992 RMK AO1 SLP139
SPECI CYNL 261105Z AUTO 30004KT 1/4SM CLR 04/04 A2992 RMK AO1 SLP139
METAR CYNL 261100Z AUTO 28003KT 0SM CLR 04/04 A2992 RMK AO1 SLP138
SPECI CYNL 261044Z AUTO 24002KT 1/8SM CLR 04/04 A2992 RMK AO1 SLP138
SPECI CYNL 261041Z AUTO 25003KT 1 3/4SM CLR 04/04 A2992 RMK AO1 SLP138
SPECI CYNL 261040Z AUTO 25003KT 1SM CLR 04/04 A2992 RMK AO1 SLP138
SPECI CYNL 261037Z AUTO 25003KT 1/8SM CLR 04/04 A2992 RMK AO1 SLP138
SPECI CYNL 261036Z AUTO 25003KT 3/8SM CLR 04/04 A2992 RMK AO1 SLP138
SPECI CYNL 261028Z AUTO 26003KT 7SM CLR 04/04 A2992 RMK AO1 SLP137
SPECI CYNL 261027Z AUTO 26003KT 2SM CLR 04/04 A2992 RMK AO1 SLP137
SPECI CYNL 261026Z AUTO 26003KT 1SM CLR 04/04 A2992 RMK AO1 SLP137
SPECI CYNL 261025Z AUTO 26003KT 1/4SM CLR 04/04 A2992 RMK AO1 SLP137
SPECI CYNL 261010Z AUTO 25003KT 1/8SM CLR 04/04 A2992 RMK AO1 SLP136
SPECI CYNL 261008Z AUTO 25003KT 5/8SM CLR 04/04 A2992 RMK AO1 SLP136
SPECI CYNL 261007Z AUTO 25003KT 1SM CLR 04/04 A2992 RMK AO1 SLP136
SPECI CYNL 261005Z AUTO 25003KT 1/4SM CLR 04/04 A2992 RMK AO1 SLP136
SPECI CYNL 261004Z AUTO 26003KT 1/8SM CLR 04/04 A2992 RMK AO1 SLP136
SPECI CYNL 261003Z AUTO 26003KT 1/4SM CLR 04/04 A2992 RMK AO1 SLP136
SPECI CYNL 261002Z AUTO 26003KT 1SM CLR 04/04 A2992 RMK AO1 SLP136
METAR CYNL 261000Z AUTO 25004KT 9SM CLR 04/04 A2992 RMK AO1 SLP136
METAR CYNL 260900Z AUTO 25003KT 9SM CLR 05/04 A2992 RMK AO1 SLP137
SPECI CYNL 260838Z AUTO 25003KT 9SM CLR 05/05 A2992 RMK AO1 SLP137
SPECI CYNL 260835Z AUTO 25003KT 2 1/2SM CLR 05/05 A2992 RMK AO1 SLP137
SPECI CYNL 260828Z AUTO 24003KT 4SM CLR 05/05 A2992 RMK AO1 SLP137
SPECI CYNL 260827Z AUTO 24003KT 2SM CLR 05/05 A2992 RMK AO1 SLP137
SPECI CYNL 260826Z AUTO 24003KT 5/8SM CLR 05/05 A2992 RMK AO1 SLP137
SPECI CYNL 260825Z AUTO 25003KT 3/4SM CLR 05/05 A2992 RMK AO1 SLP137
SPECI CYNL 260824Z AUTO 25004KT 1 1/2SM CLR 05/05 A2992 RMK AO1 SLP138
SPECI CYNL 260823Z AUTO 25004KT 9SM CLR 05/05 A2992 RMK AO1 SLP138
SPECI CYNL 260822Z AUTO 24004KT 1 1/2SM CLR 05/05 A2992 RMK AO1 SLP138
SPECI CYNL 260821Z AUTO 24004KT 1/4SM CLR 05/05 A2992 RMK AO1 SLP137
SPECI CYNL 260818Z AUTO 25004KT 1/8SM CLR 05/05 A2992 RMK AO1 SLP137
SPECI CYNL 260817Z AUTO 25004KT 1/2SM CLR 05/05 A2992 RMK AO1 SLP137
SPECI CYNL 260810Z AUTO 24004KT 3SM CLR 06/05 A2992 RMK AO1 SLP137
SPECI CYNL 260809Z AUTO 24004KT 2 1/2SM CLR 06/05 A2992 RMK AO1 SLP137
SPECI CYNL 260808Z AUTO 24004KT 1 1/4SM CLR 06/06 A2992 RMK AO1 SLP137
SPECI CYNL 260807Z AUTO 24004KT 1 1/2SM CLR 06/06 A2992 RMK AO1 SLP137
SPECI CYNL 260806Z AUTO 24004KT 2SM CLR 06/05 A2992 RMK AO1 SLP137
METAR CYNL 260800Z AUTO 23003KT 9SM CLR 06/06 A2992 RMK AO1 SLP136
SPECI CYNL 260740Z AUTO 24002KT 4SM CLR 06/06 A2992 RMK AO1 SLP137
SPECI CYNL 260738Z AUTO 24003KT 2 1/2SM CLR 06/06 A2992 RMK AO1 SLP137
SPECI CYNL 260736Z AUTO 24003KT 7SM CLR 06/06 A2992 RMK AO1 SLP137
SPECI CYNL 260735Z AUTO 25002KT 2 1/2SM CLR 06/06 A2992 RMK AO1 SLP137
SPECI CYNL 260734Z AUTO 25002KT 1 1/2SM CLR 06/06 A2992 RMK AO1 SLP137
SPECI CYNL 260733Z AUTO 25002KT 2SM CLR 06/06 A2992 RMK AO1 SLP137
METAR CYNL 260700Z AUTO 24003KT 9SM CLR 06/05 A2992 RMK AO1 SLP136
METAR CYNL 260600Z AUTO 00000KT 9SM CLR 07/03 A2992 RMK AO1 SLP135
METAR CYNL 260500Z AUTO 00000KT 9SM CLR 08/02 A2991 RMK AO1 SLP134
METAR CYNL 260400Z AUTO 34003KT 9SM CLR 10/04 A2991 RMK AO1 SLP131
METAR CYNL 260300Z AUTO 00000KT 9SM CLR 15/01 A2990 RMK AO1 SLP123
METAR CYNL 260200Z AUTO 32003KT 9SM CLR 17/00 A2989 RMK AO1 SLP120
METAR CYNL 260100Z AUTO 30005KT 9SM FEW066 17/00 A2990 RMK AO1 SLP123
METAR CYNL 260000Z AUTO 33006KT 9SM SCT064 17/M00 A2990 RMK AO1 SLP123
METAR CYNL 252300Z AUTO 32008KT 270V000 9SM FEW066 17/M00 A2990 RMK AO1 SLP128
METAR CYNL 252200Z AUTO 27004KT 9SM CLR 16/M01 A2991 RMK AO1 SLP132
METAR CYNL 252100Z AUTO 33008KT 9SM CLR 17/M00 A2992 RMK AO1 SLP136
METAR CYNL 252000Z AUTO 24005KT 9SM CLR 16/M00 A2992 RMK AO1 SLP137
METAR CYNL 251900Z AUTO 32008KT 290V000 9SM FEW054 14/00 A2993 RMK AO1 SLP139
METAR CYNL 251800Z AUTO 30008KT 9SM FEW056 14/M00 A2993 RMK AO1 SLP141
METAR CYNL 251700Z AUTO 01003KT 9SM FEW052 13/M00 A2993 RMK AO1 SLP141
METAR CYNL 251600Z AUTO 33006KT 290V010 9SM CLR 12/01 A2993 RMK AO1 SLP141
METAR CYNL 251500Z AUTO 33003KT 290V000 9SM FEW041 11/02 A2993 RMK AO1 SLP141
METAR CYNL 251400Z AUTO 33004KT 9SM CLR 09/03 A2994 RMK AO1 SLP141
METAR CYNL 251300Z AUTO 33005KT 9SM CLR 09/04 A2993 RMK AO1 SLP136
METAR CYNL 251200Z AUTO 32003KT 9SM CLR 07/04 A2992 RMK AO1 SLP132
METAR CYNL 251100Z AUTO 32004KT 9SM CLR 05/03 A2990 RMK AO1 SLP128
METAR CYNL 251000Z AUTO 32004KT 9SM CLR 04/02 A2989 RMK AO1 SLP127
METAR CYNL 250900Z AUTO 30005KT 9SM CLR 05/02 A2988 RMK AO1 SLP122
METAR CYNL 250800Z AUTO 32004KT 9SM FEW056 06/02 A2987 RMK AO1 SLP118
METAR CYNL 250700Z AUTO 35003KT 9SM FEW052 07/03 A2986 RMK AO1 SLP114
METAR CYNL 250600Z AUTO 02005KT 9SM CLR 08/03 A2984 RMK AO1 PRESRR SLP107
METAR CYNL 250500Z AUTO 02009KT 9SM CLR 09/03 A2982 RMK AO1 PRESRR SLP099
METAR CYNL 250400Z AUTO 02005KT 9SM CLR 11/04 A2980 RMK AO1 PRESRR SLP090
METAR CYNL 250300Z AUTO 02006KT 9SM CLR 13/04 A2978 RMK AO1 SLP079
METAR CYNL 250200Z AUTO 03007KT 9SM CLR 15/05 A2976 RMK AO1 SLP073
METAR CYNL 250100Z AUTO 35005KT 9SM CLR 17/06 A2975 RMK AO1 SLP067
METAR CYNL 250000Z AUTO 32008KT 9SM FEW045 18/06 A2973 RMK AO1 SLP061
METAR CYNL 242300Z AUTO 31008G15KT 9SM SCT038 17/06 A2972 RMK AO1 SLP059
METAR CYNL 242200Z AUTO 34008KT 9SM FEW031 SCT056 16/07 A2973 RMK AO1 SLP061
SPECI CYNL 242112Z AUTO 00007KT 9SM BKN030 16/08 A2972 RMK AO1 SLP058
SPECI CYNL 242108Z AUTO 34007KT 9SM BKN029 16/09 A2972 RMK AO1 SLP059
METAR CYNL 242100Z AUTO 34006KT 9SM SCT028 BKN050 16/09 A2972 RMK AO1 SLP059
SPECI CYNL 242049Z AUTO 32006KT 9SM SCT028 BKN035 15/09 A2972 RMK AO1 SLP060
SPECI CYNL 242024Z AUTO 34007KT 9SM BKN029 15/09 A2972 RMK AO1 SLP058
SPECI CYNL 242020Z AUTO 35008KT 9SM FEW024 BKN030 15/09 A2972 RMK AO1 SLP058
SPECI CYNL 242018Z AUTO 35008KT 9SM BKN029 15/09 A2972 RMK AO1 SLP058
METAR CYNL 242000Z AUTO 35007KT 9SM SCT031 15/09 A2972 RMK AO1 SLP057
SPECI CYNL 241956Z AUTO 34007KT 9SM SCT030 BKN200 16/09 A2972 RMK AO1 SLP057
SPECI CYNL 241953Z AUTO 35007KT 9SM BKN029 16/09 A2972 RMK AO1 SLP056
SPECI CYNL 241945Z AUTO 34008KT 9SM BKN030 16/09 A2971 RMK AO1 SLP055
SPECI CYNL 241944Z AUTO 34006KT 9SM BKN029 16/09 A2971 RMK AO1 SLP055
SPECI CYNL 241940Z AUTO 35008KT 9SM SCT028 BKN035 16/09 A2971 RMK AO1 SLP055
SPECI CYNL 241934Z AUTO 00007KT 9SM BKN028 16/09 A2971 RMK AO1 SLP054
METAR CYNL 241900Z AUTO 33006KT 300V000 9SM SCT029 17/09 A2970 RMK AO1 SLP051
METAR CYNL 241800Z AUTO 31007KT 9SM FEW024 BKN039 16/09 A2970 RMK AO1 SLP049
SPECI CYNL 241740Z AUTO 33005KT 9SM SCT023 BKN036 16/10 A2970 RMK AO1 SLP051
SPECI CYNL 241734Z AUTO 30005KT 9SM FEW018 BKN024 16/10 A2970 RMK AO1 SLP051
SPECI CYNL 241719Z AUTO 31007KT 9SM SCT018 BKN030 16/09 A2970 RMK AO1 SLP052
SPECI CYNL 241713Z AUTO 34008KT 9SM SCT018 BKN027 BKN160 15/10 A2970 RMK AO1 SLP052
SPECI CYNL 241711Z AUTO 35006KT 9SM SCT019 BKN031 BKN160 15/10 A2970 RMK AO1 SLP052
SPECI CYNL 241706Z AUTO 35007KT 9SM SCT020 BKN029 15/10 A2970 RMK AO1 SLP052
SPECI CYNL 241701Z AUTO 32008KT 9SM SCT020 BKN030 15/10 A2970 RMK AO1 SLP052
METAR CYNL 241700Z AUTO 32007KT 9SM SCT020 BKN026 BKN031 15/10 A2970 RMK AO1 SLP052
SPECI CYNL 241656Z AUTO 34006KT 9SM SCT020 BKN028 15/10 A2970 RMK AO1 SLP052
SPECI CYNL 241652Z AUTO 34010KT 9SM BKN020 BKN027 15/10 A2970 RMK AO1 SLP052
SPECI CYNL 241650Z AUTO 33008KT 9SM SCT019 BKN025 15/10 A2970 RMK AO1 SLP052
SPECI CYNL 241649Z AUTO 34008KT 9SM BKN019 BKN025 15/10 A2970 RMK AO1 SLP051
SPECI CYNL 241648Z AUTO 34007KT 9SM SCT019 BKN025 15/10 A2970 RMK AO1 SLP051
SPECI CYNL 241621Z AUTO 31007KT 9SM BKN019 15/10 A2969 RMK AO1 SLP049
SPECI CYNL 241608Z AUTO 31008KT 9SM SCT018 BKN044 16/10 A2969 RMK AO1 SLP049
SPECI CYNL 241607Z AUTO 32006KT 9SM BKN018 16/11 A2969 RMK AO1 SLP049
METAR CYNL 241600Z AUTO 34009G15KT 9SM SCT018 BKN046 16/10 A2969 RMK AO1 SLP048
SPECI CYNL 241522Z AUTO 33009KT 9SM SCT015 BKN046 15/11 A2969 RMK AO1 PRESRR SLP046
SPECI CYNL 241516Z AUTO 33009KT 9SM SCT015 BKN025 15/11 A2969 RMK AO1 PRESRR SLP046
SPECI CYNL 241506Z AUTO 32006KT 9SM SCT015 BKN024 BKN041 15/11 A2968 RMK AO1 PRESRR SLP046
METAR CYNL 241500Z AUTO 31008KT 9SM SCT014 BKN035 BKN041 15/11 A2968 RMK AO1 PRESRR SLP045
METAR CYNL 241400Z AUTO 30008G17KT 9SM SCT014 BKN036 16/12 A2966 RMK AO1 SLP035
SPECI CYNL 241358Z AUTO 31010G17KT 9SM SCT014 BKN036 16/12 A2966 RMK AO1 SLP035
SPECI CYNL 241352Z AUTO 30010G17KT 9SM SCT014 BKN025 16/12 A2966 RMK AO1 SLP035
SPECI CYNL 241350Z AUTO 30010G17KT 9SM BKN014 15/12 A2966 RMK AO1 SLP035
SPECI CYNL 241337Z AUTO 30008G16KT 9SM SCT014 BKN028 15/12 A2965 RMK AO1 SLP034
SPECI CYNL 241321Z AUTO 30010G16KT 9SM BKN014 BKN028 15/12 A2965 RMK AO1 SLP032
SPECI CYNL 241318Z AUTO 29008G16KT 9SM SCT014 BKN028 15/12 A2965 RMK AO1 SLP032
SPECI CYNL 241314Z AUTO 31010G16KT 9SM BKN014 BKN028 15/12 A2965 RMK AO1 SLP032
SPECI CYNL 241313Z AUTO 31010G16KT 9SM SCT014 BKN017 BKN028 15/12 A2965 RMK AO1 SLP032
SPECI CYNL 241311Z AUTO 30010G16KT 9SM SCT014 BKN028 15/12 A2965 RMK AO1 SLP032
SPECI CYNL 241310Z AUTO 30009KT 9SM SCT013 BKN020 BKN028 15/12 A2965 RMK AO1 SLP032
METAR CYNL 241300Z AUTO 30010G20KT 9SM FEW013 BKN027 15/12 A2965 RMK AO1 SLP031
SPECI CYNL 241251Z AUTO 31011G20KT 9SM SCT012 BKN027 15/12 A2964 RMK AO1 PRESRR SLP028
SPECI CYNL 241250Z AUTO 31011G20KT 9SM SCT013 BKN021 15/12 A2964 RMK AO1 PRESRR SLP028
SPECI CYNL 241249Z AUTO 30008G19KT 9SM SCT013 BKN025 15/13 A2964 RMK AO1 PRESRR SLP028
SPECI CYNL 241246Z AUTO 30012G19KT 9SM SCT012 BKN022 15/13 A2964 RMK AO1 PRESRR SLP028
SPECI CYNL 241245Z AUTO 30010G19KT 9SM SCT012 BKN028 15/13 A2964 RMK AO1 PRESRR SLP028
METAR CYNL 241200Z AUTO 30008KT 9SM FEW023 15/12 A2962 RMK AO1 PRESRR SLP022
SPECI CYNL 241115Z AUTO 32009G17KT 9SM FEW019 SCT024 15/12 A2961 RMK AO1 PRESRR SLP018
METAR CYNL 241100Z AUTO 31010G18KT 9SM FEW014 BKN022 15/12 A2960 RMK AO1 PRESRR SLP016
SPECI CYNL 241005Z AUTO 31011G17KT 9SM FEW017 BKN024 15/12 A2958 RMK AO1 SLP008
SPECI CYNL 241004Z AUTO 31009G17KT 9SM FEW017 SCT024 BKN029 15/12 A2958 RMK AO1 SLP008
METAR CYNL 241000Z AUTO 31010G16KT 9SM FEW017 SCT024 BKN030 15/12 A2958 RMK AO1 SLP008
SPECI CYNL 240957Z AUTO 31009G16KT 9SM FEW016 SCT023 BKN030 16/12 A2958 RMK AO1 PRESRR SLP008
SPECI CYNL 240954Z AUTO 30008G16KT 9SM FEW016 BKN022 16/12 A2958 RMK AO1 PRESRR SLP008
SPECI CYNL 240953Z AUTO 30009G16KT 9SM FEW016 SCT021 BKN027 16/12 A2958 RMK AO1 PRESRR SLP009
SPECI CYNL 240952Z AUTO 30010G16KT 9SM FEW016 BKN022 16/12 A2958 RMK AO1 PRESRR SLP009
SPECI CYNL 240941Z AUTO 32011G19KT 9SM SCT020 BKN027 16/12 A2958 RMK AO1 PRESRR SLP008
METAR CYNL 240900Z AUTO 31010G20KT 8SM BKN021 16/11 A2957 RMK AO1 PRESRR SLP003
SPECI CYNL 240819Z AUTO 31013G22KT 4SM BKN022 BKN040 16/12 A2955 RMK AO1 SLP998
METAR CYNL 240800Z AUTO 31011G17KT 9SM FEW026 BKN039 16/11 A2954 RMK AO1 SLP995
SPECI CYNL 240728Z AUTO 29012G21KT 9SM SCT030 BKN038 16/10 A2953 RMK AO1 SLP995
SPECI CYNL 240727Z AUTO 28014G21KT 9SM BKN029 16/10 A2953 RMK AO1 SLP994
SPECI CYNL 240726Z AUTO 28016G21KT 9SM SCT029 BKN035 16/10 A2953 RMK AO1 SLP994
SPECI CYNL 240725Z AUTO 28014G21KT 9SM BKN029 16/10 A2953 RMK AO1 SLP994
SPECI CYNL 240721Z AUTO 28015G22KT 9SM SCT029 BKN034 16/10 A2953 RMK AO1 SLP994
SPECI CYNL 240719Z AUTO 28013G22KT 9SM BKN029 16/10 A2953 RMK AO1 SLP993
METAR CYNL 240700Z AUTO 28013G22KT 9SM BKN031 16/10 A2953 RMK AO1 SLP992
METAR CYNL 240600Z AUTO 27011G23KT 9SM FEW060 16/09 A2952 RMK AO1 SLP989
METAR CYNL 240500Z AUTO 26010G21KT 9SM CLR 16/08 A2952 RMK AO1 SLP991
METAR CYNL 240400Z AUTO 27009G19KT 9SM CLR 16/08 A2952 RMK AO1 SLP989
METAR CYNL 240300Z AUTO 28011G20KT 9SM CLR 17/07 A2953 RMK AO1 SLP990
METAR CYNL 240200Z AUTO 27007G21KT 9SM CLR 18/07 A2951 RMK AO1 SLP986
METAR CYNL 240100Z AUTO 30011G23KT 9SM CLR 20/06 A2950 RMK AO1 SLP982
METAR CYNL 240000Z AUTO 29011G19KT 9SM FEW086 19/08 A2949 RMK AO1 SLP982
METAR CYNL 232300Z AUTO 30010G19KT 9SM FEW049 19/08 A2948 RMK AO1 SLP977
METAR CYNL 232200Z AUTO 27008G16KT 9SM CLR 19/10 A2947 RMK AO1 SLP973
METAR CYNL 232100Z AUTO 27007KT 9SM CLR 17/09 A2946 RMK AO1 SLP969
METAR CYNL 232000Z AUTO 19005KT 9SM CLR 16/11 A2944 RMK AO1 SLP965
METAR CYNL 231900Z AUTO 29002KT 9SM CLR 15/11 A2943 RMK AO1 SLP960
METAR CYNL 231800Z AUTO 00005KT 9SM CLR 15/10 A2944 RMK AO1 SLP962
METAR CYNL 231700Z AUTO 28004KT 9SM SCT028 17/10 A2943 RMK AO1 SLP961
METAR CYNL 231600Z AUTO 27007KT 9SM FEW022 15/10 A2944 RMK AO1 SLP966
METAR CYNL 231500Z AUTO 26005KT 9SM FEW054 14/12 A2946 RMK AO1 SLP968
METAR CYNL 231400Z AUTO 23004KT 9SM CLR 13/13 A2945 RMK AO1 SLP966
METAR CYNL 231300Z AUTO 24003KT 9SM CLR 11/11 A2946 RMK AO1 PRESFR SLP968
SPECI CYNL 231203Z AUTO 28005KT 9SM FEW008 BKN047 11/11 A2948 RMK AO1 PRESFR SLP973
METAR CYNL 231200Z AUTO 27006KT 5SM VV047 11/11 A2948 RMK AO1 PRESFR SLP974
SPECI CYNL 231148Z AUTO 26005KT 3SM VV036 12/12 A2949 RMK AO1 SLP975
SPECI CYNL 231141Z AUTO 23005KT 2 1/2SM FEW012 SCT047 12/12 A2949 RMK AO1 SLP976
SPECI CYNL 231110Z AUTO 22005KT 3SM FEW017 OVC045 12/11 A2951 RMK AO1 SLP981
METAR CYNL 231100Z AUTO 24006KT 2 1/2SM FEW019 OVC042 12/11 A2951 RMK AO1 SLP982
SPECI CYNL 231059Z AUTO 24006KT 2 1/2SM FEW030 OVC042 12/11 A2951 RMK AO1 SLP983
METAR CYNL 231000Z AUTO 22011G28KT 13/11 A2950 RMK AO1 PRESRR SLP979
METAR CYNL 230900Z AUTO 27006KT 15/07 A2947 RMK AO1 PRESFR SLP966
METAR CYNL 230800Z AUTO 26005KT 15/08 A2953 RMK AO1 SLP989
METAR CYNL 230700Z AUTO 27004KT 15/09 A2954 RMK AO1 SLP995
METAR CYNL 230600Z AUTO 31002KT 12/12 A2955 RMK AO1 PRESFR SLP999
METAR CYNL 230500Z AUTO 26002KT 9SM CLR 14/12 A2960 RMK AO1 PRESFR SLP014
METAR CYNL 230400Z AUTO 00000KT 9SM CLR 17/13 A2962 RMK AO1 SLP019
METAR CYNL 230300Z AUTO 23005KT 9SM CLR 20/12 A2962 RMK AO1 SLP018
METAR CYNL 230200Z AUTO 23004KT 9SM CLR 22/13 A2964 RMK AO1 SLP024
METAR CYNL 230100Z AUTO 23005KT 9SM CLR 23/12 A2965 RMK AO1 SLP028
METAR CYNL 230000Z AUTO 26007KT 9SM CLR 24/13 A2966 RMK AO1 SLP029
METAR CYNL 222300Z AUTO 23007G15KT 9SM CLR 24/16 A2968 RMK AO1 PRESFR SLP034
METAR CYNL 222200Z AUTO 18010KT 9SM CLR 22/16 A2969 RMK AO1 PRESRR SLP042
SPECI CYNL 222106Z AUTO 18009KT 3SM FEW005 SCT013 20/20 A2968 RMK AO1 SLP040
METAR CYNL 222100Z AUTO 17010KT 2 1/2SM FEW005 SCT012 20/20 A2967 RMK AO1 SLP037
SPECI CYNL 222057Z AUTO 18008KT 2SM FEW005 SCT013 20/20 A2967 RMK AO1 SLP036
SPECI CYNL 222055Z AUTO 17009KT 2 1/2SM FEW011 SCT013 20/20 A2967 RMK AO1 SLP037
SPECI CYNL 222003Z AUTO 17013G20KT 4SM 20/19 A2968 RMK AO1 SLP040
METAR CYNL 222000Z AUTO 18014G21KT 4SM BKN007 OVC010 20/19 A2969 RMK AO1 SLP042
METAR CYNL 221900Z AUTO 16015G24KT 4SM OVC009 19/18 A2969 RMK AO1 SLP045
SPECI CYNL 221856Z AUTO 16017G25KT 4SM OVC009 19/18 A2969 RMK AO1 SLP046
METAR CYNL 221800Z AUTO 17015G20KT 5SM BKN012 19/18 A2971 RMK AO1 SLP051
SPECI CYNL 221717Z AUTO 17012G19KT 3SM FEW007 SCT009 BKN011 19/18 A2973 RMK AO1 PRESFR SLP056
SPECI CYNL 221715Z AUTO 17012G19KT 3SM BKN008 19/18 A2973 RMK AO1 PRESFR SLP056
METAR CYNL 221700Z AUTO 15013G21KT 2SM VV008 19/18 A2973 RMK AO1 PRESFR SLP057
SPECI CYNL 221649Z AUTO 16013KT 2SM OVC007 18/18 A2973 RMK AO1 PRESFR SLP055
SPECI CYNL 221636Z AUTO 15014KT 1 1/2SM VV007 18/18 A2974 RMK AO1 PRESFR SLP059
METAR CYNL 221600Z AUTO 14011G18KT 1SM VV005 17/17 A2976 RMK AO1 PRESFR SLP068
SPECI CYNL 221550Z AUTO 13011G18KT 1SM VV006 17/17 A2976 RMK AO1 PRESFR SLP068
SPECI CYNL 221547Z AUTO 14010G18KT 3/4SM VV006 17/17 A2977 RMK AO1 PRESFR SLP070
SPECI CYNL 221543Z AUTO 14012G18KT 1SM VV006 17/17 A2977 RMK AO1 PRESFR SLP070
SPECI CYNL 221539Z AUTO 13008G17KT 3/4SM VV005 17/17 A2977 RMK AO1 PRESFR SLP070
SPECI CYNL 221537Z AUTO 14010G17KT 5/8SM VV005 17/17 A2977 RMK AO1 PRESFR SLP071
SPECI CYNL 221527Z AUTO 14008G16KT 5/8SM VV004 17/17 A2977 RMK AO1 PRESFR SLP072
SPECI CYNL 221526Z AUTO 15008G16KT 3/4SM VV005 17/17 A2977 RMK AO1 PRESFR SLP072
SPECI CYNL 221522Z AUTO 13011G16KT 5/8SM VV004 17/17 A2976 RMK AO1 PRESFR SLP068
SPECI CYNL 221520Z AUTO 12011KT 5/8SM VV005 17/17 A2976 RMK AO1 PRESFR SLP069
SPECI CYNL 221518Z AUTO 13012KT 3/4SM VV004 17/17 A2977 RMK AO1 PRESFR SLP072
SPECI CYNL 221512Z AUTO 12006KT 3/4SM VV006 17/17 A2979 RMK AO1 PRESFR SLP077
SPECI CYNL 221509Z AUTO 13010KT 1SM VV006 17/17 A2979 RMK AO1 PRESFR SLP079
SPECI CYNL 221508Z AUTO 14009KT 3/4SM VV006 17/17 A2980 RMK AO1 PRESFR SLP080
SPECI CYNL 221506Z AUTO 14006KT 5/8SM VV005 16/16 A2980 RMK AO1 PRESFR SLP082
METAR CYNL 221500Z AUTO 12005G16KT 5/8SM OVC003 16/16 A2979 RMK AO1 PRESFR SLP079
SPECI CYNL 221433Z AUTO 12010G15KT 1/4SM VV003 16/16 A2980 RMK AO1 PRESFR SLP081
SPECI CYNL 221426Z AUTO 11010G17KT 1/4SM VV002 16/16 A2980 RMK AO1 PRESFR SLP081
SPECI CYNL 221425Z AUTO 11010G17KT 1/8SM VV003 16/16 A2980 RMK AO1 PRESFR SLP080
SPECI CYNL 221424Z AUTO 11010G17KT 1/8SM VV005 16/16 A2980 RMK AO1 PRESFR SLP080
SPECI CYNL 221422Z AUTO 10013KT 1/8SM VV014 16/16 A2979 RMK AO1 PRESFR SLP077
SPECI CYNL 221417Z AUTO 10012KT 1/4SM VV016 16/16 A2981 RMK AO1 PRESFR SLP086
SPECI CYNL 221416Z AUTO ///// 1/4SM VV013 16/16 A2982 RMK AO1 PRESFR SLP087
METAR CYNL 221400Z AUTO 07007KT 3/8SM VV005 15/15 A2983 RMK AO1 PRESFR SLP090
SPECI CYNL 221343Z AUTO 13005KT 5/8SM VV007 15/15 A2985 RMK AO1 SLP098
SPECI CYNL 221342Z AUTO 13006KT 3/4SM VV007 15/15 A2985 RMK AO1 SLP098
SPECI CYNL 221327Z AUTO 05005KT 1 1/4SM VV008 15/15 A2983 RMK AO1 SLP091
SPECI CYNL 221326Z AUTO 06005KT 1 1/2SM VV008 15/15 A2983 RMK AO1 SLP091
SPECI CYNL 221323Z AUTO 07004KT 1 1/4SM VV009 15/15 A2983 RMK AO1 SLP091
SPECI CYNL 221312Z AUTO 01007KT 330V060 1 1/4SM VV010 15/15 A2985 RMK AO1 SLP096
SPECI CYNL 221310Z AUTO 00006KT 330V040 1 1/2SM FEW005 SCT009 BKN011 16/16 A2985 RMK AO1 SLP097
SPECI CYNL 221303Z AUTO 33004KT 1 1/4SM FEW005 SCT009 BKN011 16/16 A2986 RMK AO1 SLP101
METAR CYNL 221300Z AUTO 28009KT 240V320 1SM VV007 16/16 A2987 RMK AO1 SLP105
SPECI CYNL 221259Z AUTO 27009KT 220V320 3/4SM VV007 16/16 A2988 RMK AO1 SLP105
SPECI CYNL 221252Z AUTO 21008KT 160V260 5/8SM VV007 17/16 A2989 RMK AO1 SLP110
SPECI CYNL 221249Z AUTO 17005KT 140V200 3/4SM VV006 17/15 A2988 RMK AO1 SLP106
SPECI CYNL 221248Z AUTO 17005KT 130V200 3/4SM FEW004 17/15 A2988 RMK AO1 SLP106
SPECI CYNL 221246Z AUTO 17005KT 130V200 5/8SM FEW004 17/15 A2988 RMK AO1 SLP104
SPECI CYNL 221244Z AUTO 17004KT 3/4SM FEW009 17/15 A2987 RMK AO1 SLP103
METAR CYNL 221200Z AUTO 15006KT 1 1/4SM 17/14 A2988 RMK AO1 SLP106
SPECI CYNL 221117Z AUTO 14004KT 1 1/4SM CLR 17/14 A2987 RMK AO1 SLP101
SPECI CYNL 221116Z AUTO 14004KT 1 1/2SM CLR 17/14 A2987 RMK AO1 SLP101
SPECI CYNL 221111Z AUTO 13005KT 1 1/4SM CLR 17/14 A2987 RMK AO1 SLP100
SPECI CYNL 221110Z AUTO 13005KT 1 1/2SM CLR 17/14 A2987 RMK AO1 SLP100
SPECI CYNL 221107Z AUTO 13005KT 1 1/4SM CLR 17/14 A2987 RMK AO1 SLP100
METAR CYNL 221100Z AUTO 13005KT 1 1/2SM CLR 17/14 A2987 RMK AO1 SLP101
METAR CYNL 221000Z AUTO 15009KT 1 3/4SM CLR 17/13 A2989 RMK AO1 SLP107
SPECI CYNL 220951Z AUTO 14007KT 1 3/4SM CLR 17/13 A2989 RMK AO1 SLP106
SPECI CYNL 220950Z AUTO 14007KT 2SM CLR 17/13 A2989 RMK AO1 SLP106
SPECI CYNL 220946Z AUTO 14007KT 1 3/4SM CLR 17/13 A2989 RMK AO1 SLP107
METAR CYNL 220900Z AUTO 14005KT 2 1/2SM FEW070 17/13 A2991 RMK AO1 SLP114
SPECI CYNL 220854Z AUTO 14005KT 2 1/2SM CLR 17/13 A2991 RMK AO1 PRESFR SLP116
METAR CYNL 220800Z AUTO 12005KT 3SM CLR 17/12 A2991 RMK AO1 PRESFR SLP116
SPECI CYNL 220757Z AUTO 12005KT 3SM CLR 17/12 A2991 RMK AO1 SLP116
SPECI CYNL 220756Z AUTO 12005KT 2 1/2SM CLR 17/12 A2991 RMK AO1 SLP116
SPECI CYNL 220745Z AUTO 12004KT 3SM CLR 17/12 A2992 RMK AO1 SLP118
SPECI CYNL 220727Z AUTO 12005KT 2 1/2SM CLR 16/12 A2993 RMK AO1 SLP122
METAR CYNL 220700Z AUTO 10004KT 8SM CLR 16/12 A2994 RMK AO1 SLP126
METAR CYNL 220600Z AUTO 09004KT 9SM CLR 18/12 A2995 RMK AO1 SLP130
METAR CYNL 220500Z AUTO 08003KT 9SM BKN078 19/12 A2997 RMK AO1 SLP133
METAR CYNL 220400Z AUTO 10004KT 9SM FEW058 SCT074 20/12 A2997 RMK AO1 SLP134
METAR CYNL 220300Z AUTO 10005KT 9SM FEW066 21/12 A2998 RMK AO1 SLP135
METAR CYNL 220200Z AUTO 10003KT 9SM CLR 22/12 A2998 RMK AO1 SLP139
METAR CYNL 220100Z AUTO 12003KT 9SM FEW066 22/11 A2999 RMK AO1 SLP144
METAR CYNL 220000Z AUTO 13005KT 9SM CLR 23/11 A3000 RMK AO1 SLP148
METAR CYNL 212300Z AUTO 16004KT 9SM CLR 23/11 A3001 RMK AO1 SLP149
METAR CYNL 212200Z AUTO 12006KT 080V170 9SM CLR 23/11 A3001 RMK AO1 SLP151
METAR CYNL 212100Z AUTO 09005KT 9SM CLR 22/11 A3002 RMK AO1 SLP158
METAR CYNL 212000Z AUTO 10006KT 9SM FEW045 SCT210 22/11 A3003 RMK AO1 SLP158
METAR CYNL 211900Z AUTO 08006KT 9SM FEW045 SCT220 22/11 A3003 RMK AO1 SLP160
METAR CYNL 211800Z AUTO 17007KT 8SM FEW150 23/11 A3004 RMK AO1 SLP161
METAR CYNL 211700Z AUTO 15008KT 120V190 6SM CLR 22/11 A3005 RMK AO1 SLP163
METAR CYNL 211600Z AUTO 10004KT 4SM CLR 21/11 A3005 RMK AO1 SLP165
SPECI CYNL 211523Z AUTO 09003KT 3SM CLR 20/11 A3005 RMK AO1 SLP164
SPECI CYNL 211516Z AUTO 08004KT 2 1/2SM CLR 20/11 A3005 RMK AO1 SLP164
SPECI CYNL 211507Z AUTO 09004KT 3SM CLR 20/11 A3005 RMK AO1 SLP164
METAR CYNL 211500Z AUTO 04003KT 2 1/2SM CLR 19/12 A3005 RMK AO1 SLP165
SPECI CYNL 211401Z AUTO 00000KT 2 1/2SM CLR 17/12 A3005 RMK AO1 SLP166
METAR CYNL 211400Z AUTO 00000KT 3SM CLR 17/12 A3005 RMK AO1 SLP166
SPECI CYNL 211358Z AUTO 00000KT 3SM CLR 17/12 A3005 RMK AO1 SLP165
SPECI CYNL 211339Z AUTO 07002KT 2 1/2SM CLR 17/12 A3005 RMK AO1 SLP165
METAR CYNL 211300Z AUTO 00000KT 7SM CLR 16/12 A3005 RMK AO1 SLP166
METAR CYNL 211200Z AUTO 18002KT 9SM SCT048 15/12 A3006 RMK AO1 SLP170
METAR CYNL 211100Z AUTO 18003KT 9SM SCT043 15/11 A3006 RMK AO1 SLP168
METAR CYNL 211000Z AUTO 12002KT 9SM FEW130 14/12 A3005 RMK AO1 SLP165
METAR CYNL 210900Z AUTO 00000KT 9SM CLR 14/11 A3005 RMK AO1 SLP166
METAR CYNL 210800Z AUTO 00000KT 9SM BKN047 15/11 A3005 RMK AO1 SLP166
METAR CYNL 210700Z AUTO 00000KT 9SM FEW050 15/11 A3005 RMK AO1 SLP166
METAR CYNL 210600Z AUTO 00000KT 9SM FEW049 16/10 A3006 RMK AO1 SLP167
METAR CYNL 210500Z AUTO 16003KT 9SM FEW140 16/11 A3005 RMK AO1 SLP166
METAR CYNL 210400Z AUTO 21002KT 9SM CLR 17/10 A3006 RMK AO1 SLP166
METAR CYNL 210300Z AUTO 22005KT 9SM CLR 18/10 A3007 RMK AO1 SLP172
METAR CYNL 210200Z AUTO 21006KT 9SM CLR 20/10 A3008 RMK AO1 SLP173
METAR CYNL 210100Z AUTO 20011KT 9SM BKN046 20/11 A3008 RMK AO1 SLP175
METAR CYNL 210000Z AUTO 17008KT 7SM CLR 22/10 A3007 RMK AO1 SLP175
METAR CYNL 202300Z AUTO 15009KT 6SM CLR 23/09 A3008 RMK AO1 SLP177
METAR CYNL 202200Z AUTO 18005KT 9SM FEW180 22/09 A3009 RMK AO1 SLP181
METAR CYNL 202100Z AUTO 19005KT 160V230 9SM SCT056 23/08 A3010 RMK AO1 SLP185
METAR CYNL 202000Z AUTO 15004KT 9SM SCT052 22/08 A3012 RMK AO1 SLP193
METAR CYNL 201900Z AUTO 19005KT 9SM FEW049 22/09 A3013 RMK AO1 SLP199
METAR CYNL 201800Z AUTO 18004KT 9SM FEW046 21/10 A3015 RMK AO1 SLP205
METAR CYNL 201700Z AUTO 23003KT 9SM CLR 21/10 A3017 RMK AO1 SLP211
METAR CYNL 201600Z AUTO 24006KT 9SM CLR 20/11 A3018 RMK AO1 SLP215
METAR CYNL 201500Z AUTO 23005KT 9SM CLR 19/11 A3019 RMK AO1 SLP218
METAR CYNL 201400Z AUTO 18003KT 9SM CLR 17/11 A3020 RMK AO1 SLP220
METAR CYNL 201300Z AUTO 21002KT 9SM CLR 14/10 A3020 RMK AO1 SLP223
METAR CYNL 201200Z AUTO 00000KT 9SM FEW056 11/09 A3021 RMK AO1 SLP229
METAR CYNL 201100Z AUTO 00000KT 9SM CLR 12/09 A3022 RMK AO1 SLP229
METAR CYNL 201000Z AUTO 20003KT 9SM BKN058 12/09 A3022 RMK AO1 SLP231
METAR CYNL 200900Z AUTO 24003KT 9SM SCT058 BKN150 10/09 A3023 RMK AO1 SLP234
METAR CYNL 200800Z AUTO 24004KT 9SM CLR 10/08 A3023 RMK AO1 SLP237
METAR CYNL 200700Z AUTO 21003KT 9SM CLR 10/08 A3024 RMK AO1 SLP238
METAR CYNL 200600Z AUTO 21003KT 9SM CLR 10/08 A3025 RMK AO1 SLP242
METAR CYNL 200500Z AUTO 17004KT 9SM CLR 11/08 A3026 RMK AO1 SLP245
METAR CYNL 200400Z AUTO 18003KT 7SM CLR 13/08 A3026 RMK AO1 SLP244
METAR CYNL 200300Z AUTO 15002KT 5SM CLR 16/10 A3026 RMK AO1 SLP241
METAR CYNL 200200Z AUTO 21003KT 5SM CLR 18/07 A3026 RMK AO1 SLP241
METAR CYNL 200100Z AUTO 25005KT 6SM CLR 19/07 A3027 RMK AO1 SLP243
METAR CYNL 200000Z AUTO 22006KT 9SM CLR 18/07 A3027 RMK AO1 SLP250
METAR CYNL 192300Z AUTO 25004KT 9SM CLR 18/07 A3028 RMK AO1 SLP254
METAR CYNL 192200Z AUTO 24007KT 9SM CLR 18/07 A3030 RMK AO1 SLP262
METAR CYNL 192100Z AUTO 22006KT 9SM SCT048 18/05 A3030 RMK AO1 SLP265
METAR CYNL 192000Z AUTO 18006KT 9SM FEW056 18/06 A3031 RMK AO1 SLP266
METAR CYNL 191900Z AUTO 18006KT 9SM BKN049 17/06 A3032 RMK AO1 SLP270
METAR CYNL 191800Z AUTO 19007KT 9SM OVC050 16/06 A3033 RMK AO1 SLP275
METAR CYNL 191700Z AUTO 22006KT 9SM SCT045 16/06 A3033 RMK AO1 SLP276
METAR CYNL 191600Z AUTO 20006KT 9SM FEW041 16/05 A3034 RMK AO1 SLP279
METAR CYNL 191500Z AUTO 20003KT 9SM CLR 16/06 A3034 RMK AO1 SLP276
METAR CYNL 191400Z AUTO 17003KT 9SM CLR 15/08 A3035 RMK AO1 SLP277
METAR CYNL 191300Z AUTO 23003KT 6SM CLR 11/09 A3036 RMK AO1 SLP282
METAR CYNL 191200Z AUTO 00000KT 9SM CLR 11/09 A3036 RMK AO1 SLP282
METAR CYNL 191100Z AUTO 00000KT 9SM CLR 07/07 A3036 RMK AO1 SLP283
SPECI CYNL 191053Z AUTO 00000KT 4SM CLR 07/07 A3036 RMK AO1 SLP283
SPECI CYNL 191052Z AUTO 00000KT 2SM CLR 07/07 A3036 RMK AO1 SLP283
SPECI CYNL 191051Z AUTO 00000KT 1/2SM CLR 07/07 A3036 RMK AO1 SLP283
SPECI CYNL 191047Z AUTO 00000KT 1/8SM CLR 06/06 A3036 RMK AO1 SLP283
SPECI CYNL 191045Z AUTO 00000KT 1/2SM CLR 06/06 A3035 RMK AO1 SLP283
SPECI CYNL 191011Z AUTO 00000KT 3SM CLR 05/05 A3035 RMK AO1 SLP283
SPECI CYNL 191010Z AUTO 00000KT 1 3/4SM CLR 05/05 A3035 RMK AO1 SLP282
SPECI CYNL 191008Z AUTO 00000KT 1/4SM CLR 05/05 A3035 RMK AO1 SLP282
SPECI CYNL 191007Z AUTO 00000KT 1/8SM CLR 05/05 A3035 RMK AO1 SLP282
SPECI CYNL 191005Z AUTO 00000KT 1/2SM CLR 05/05 A3035 RMK AO1 SLP282
SPECI CYNL 191004Z AUTO 00000KT 1 3/4SM CLR 05/05 A3035 RMK AO1 SLP282
SPECI CYNL 191002Z AUTO 00000KT 1SM CLR 05/05 A3035 RMK AO1 SLP282
SPECI CYNL 191001Z AUTO 00000KT 3/4SM CLR 05/05 A3035 RMK AO1 SLP282
METAR CYNL 191000Z AUTO 00000KT 1/2SM CLR 05/05 A3035 RMK AO1 SLP282
SPECI CYNL 190958Z AUTO 00000KT 1/2SM CLR 05/05 A3035 RMK AO1 SLP283
SPECI CYNL 190957Z AUTO 00000KT 1 1/4SM CLR 05/05 A3035 RMK AO1 SLP283
SPECI CYNL 190956Z AUTO 00000KT 2 1/2SM CLR 05/05 A3035 RMK AO1 SLP283
SPECI CYNL 190955Z AUTO 00000KT 3SM CLR 05/05 A3035 RMK AO1 SLP283
SPECI CYNL 190953Z AUTO 00000KT 2 1/2SM CLR 05/05 A3035 RMK AO1 SLP282
METAR CYNL 190900Z AUTO 00000KT 7SM CLR 06/05 A3035 RMK AO1 SLP283
METAR CYNL 190800Z AUTO 00000KT 9SM CLR 06/04 A3034 RMK AO1 SLP280
METAR CYNL 190700Z AUTO 00000KT 9SM CLR 06/05 A3033 RMK AO1 SLP277
METAR CYNL 190600Z AUTO 00000KT 9SM CLR 07/05 A3034 RMK AO1 SLP280
METAR CYNL 190500Z AUTO 23003KT 9SM CLR 08/06 A3034 RMK AO1 SLP279
METAR CYNL 190400Z AUTO 00000KT 9SM CLR 11/06 A3033 RMK AO1 SLP276
METAR CYNL 190300Z AUTO 00000KT 9SM CLR 13/05 A3033 RMK AO1 SLP273
METAR CYNL 190200Z AUTO 11004KT 9SM CLR 15/03 A3033 RMK AO1 SLP271
METAR CYNL 190100Z AUTO 10004KT 9SM SCT054 16/04 A3032 RMK AO1 SLP270
METAR CYNL 190000Z AUTO 17002KT 9SM CLR 18/04 A3033 RMK AO1 SLP270
METAR CYNL 182300Z AUTO 12007KT 060V180 9SM BKN050 17/04 A3033 RMK AO1 SLP272
METAR CYNL 182200Z AUTO 11006KT 080V150 9SM BKN052 16/04 A3033 RMK AO1 SLP273
METAR CYNL 182100Z AUTO 07004KT 9SM FEW048 16/03 A3034 RMK AO1 SLP275
METAR CYNL 182000Z AUTO 10005KT 9SM FEW045 16/04 A3034 RMK AO1 SLP275
METAR CYNL 181900Z AUTO 07007KT 9SM FEW040 SCT200 15/05 A3034 RMK AO1 SLP278
METAR CYNL 181800Z AUTO 09008KT 9SM FEW041 SCT170 15/03 A3034 RMK AO1 SLP278
METAR CYNL 181700Z AUTO 06009KT 9SM FEW210 14/04 A3035 RMK AO1 SLP280
METAR CYNL 181600Z AUTO 09007KT 9SM FEW058 12/05 A3035 RMK AO1 SLP284
METAR CYNL 181500Z AUTO 08005KT 9SM SCT054 BKN070 11/06 A3035 RMK AO1 SLP285
METAR CYNL 181400Z AUTO 08005KT 9SM SCT068 10/07 A3034 RMK AO1 SLP283
METAR CYNL 181300Z AUTO 05005KT 9SM OVC068 10/07 A3034 RMK AO1 SLP282
METAR CYNL 181200Z AUTO 05006KT 9SM FEW074 10/06 A3033 RMK AO1 SLP278
METAR CYNL 181100Z AUTO 05004KT 9SM FEW080 10/06 A3033 RMK AO1 SLP278
METAR CYNL 181000Z AUTO 05004KT 9SM FEW068 10/06 A3034 RMK AO1 SLP280
METAR CYNL 180900Z AUTO 04004KT 9SM BKN072 BKN082 10/06 A3034 RMK AO1 SLP280
METAR CYNL 180800Z AUTO 02003KT 9SM SCT080 10/06 A3033 RMK AO1 PRESRR SLP278
METAR CYNL 180700Z AUTO 05005KT 9SM BKN082 10/05 A3030 RMK AO1 SLP268
METAR CYNL 180600Z AUTO 06005KT 9SM BKN088 10/05 A3031 RMK AO1 PRESFR SLP270
METAR CYNL 180500Z AUTO 07005KT 9SM BKN060 10/05 A3034 RMK AO1 SLP280
METAR CYNL 180400Z AUTO 07004KT 9SM FEW082 SCT110 10/05 A3033 RMK AO1 SLP277
METAR CYNL 180300Z AUTO 06007KT 9SM SCT082 BKN120 10/04 A3032 RMK AO1 SLP274
METAR CYNL 180200Z AUTO 06007KT 9SM FEW086 10/05 A3031 RMK AO1 SLP269
METAR CYNL 180100Z AUTO 03006KT 9SM CLR 11/05 A3031 RMK AO1 PRESFR SLP270
METAR CYNL 180000Z AUTO 06007KT 9SM CLR 12/03 A3033 RMK AO1 SLP278
METAR CYNL 172300Z AUTO 03003KT 9SM CLR 12/03 A3034 RMK AO1 SLP285
METAR CYNL 172200Z AUTO 06005KT 9SM CLR 12/02 A3034 RMK AO1 SLP285
METAR CYNL 172100Z AUTO 07008KT 9SM FEW200 12/01 A3035 RMK AO1 SLP289
METAR CYNL 172000Z AUTO 13006KT 9SM SCT130 12/01 A3035 RMK AO1 SLP291
METAR CYNL 171900Z AUTO 09006G15KT 9SM FEW140 12/01 A3034 RMK AO1 SLP284
METAR CYNL 171800Z AUTO 10009KT 9SM FEW140 12/01 A3035 RMK AO1 SLP288
METAR CYNL 171700Z AUTO 09009G17KT 9SM FEW200 12/01 A3035 RMK AO1 SLP286
METAR CYNL 171600Z AUTO 08009KT 9SM CLR 11/00 A3036 RMK AO1 SLP288
METAR CYNL 171500Z AUTO 07009KT 9SM FEW240 11/00 A3035 RMK AO1 SLP287
METAR CYNL 171400Z AUTO 06008KT 9SM CLR 10/01 A3035 RMK AO1 SLP287
METAR CYNL 171300Z AUTO 09006KT 9SM CLR 09/02 A3035 RMK AO1 SLP285
METAR CYNL 171200Z AUTO 06004KT 9SM CLR 07/03 A3032 RMK AO1 SLP280
METAR CYNL 171100Z AUTO 05003KT 9SM CLR 05/02 A3033 RMK AO1 SLP283
METAR CYNL 171000Z AUTO 03003KT 9SM CLR 04/02 A3031 RMK AO1 SLP280
METAR CYNL 170900Z AUTO 02003KT 9SM CLR 04/02 A3030 RMK AO1 SLP273
METAR CYNL 170800Z AUTO 01003KT 9SM BKN200 05/02 A3029 RMK AO1 SLP268
METAR CYNL 170700Z AUTO 02005KT 9SM SCT210 06/02 A3027 RMK AO1 PRESRR SLP261
METAR CYNL 170600Z AUTO 01004KT 9SM CLR 07/01 A3025 RMK AO1 SLP254
METAR CYNL 170500Z AUTO 02004KT 9SM FEW039 SCT230 08/02 A3023 RMK AO1 SLP247
METAR CYNL 170400Z AUTO 02007KT 9SM OVC038 09/02 A3022 RMK AO1 PRESRR SLP241
METAR CYNL 170300Z AUTO 02004KT 9SM OVC038 10/01 A3020 RMK AO1 SLP231
METAR CYNL 170200Z AUTO 35006KT 9SM OVC035 10/02 A3018 RMK AO1 SLP223
METAR CYNL 170100Z AUTO 35006KT 9SM OVC036 10/02 A3017 RMK AO1 SLP218
METAR CYNL 170000Z AUTO 34007G17KT 9SM OVC035 10/02 A3015 RMK AO1 PRESRR SLP214
METAR CYNL 162300Z AUTO 34009KT 9SM OVC033 10/02 A3013 RMK AO1 PRESRR SLP206
METAR CYNL 162200Z AUTO 35011G19KT 9SM OVC032 10/02 A3010 RMK AO1 SLP196
METAR CYNL 162100Z AUTO 00010G19KT 9SM OVC031 10/02 A3009 RMK AO1 PRESRR SLP190
SPECI CYNL 162010Z AUTO 33012G20KT 9SM OVC030 10/03 A3007 RMK AO1 PRESRR SLP183
METAR CYNL 162000Z AUTO 35013G20KT 9SM BKN029 10/03 A3006 RMK AO1 PRESRR SLP181
METAR CYNL 161900Z AUTO 35013G21KT 9SM OVC027 10/04 A3003 RMK AO1 PRESRR SLP170
SPECI CYNL 161824Z AUTO 34009G23KT 9SM BKN025 10/04 A3001 RMK AO1 PRESRR SLP162
METAR CYNL 161800Z AUTO 35013KT 9SM BKN020 OVC025 10/05 A2999 RMK AO1 PRESRR SLP154
SPECI CYNL 161735Z AUTO 35010G21KT 9SM SCT014 OVC019 10/05 A2998 RMK AO1 PRESRR SLP150
METAR CYNL 161700Z AUTO 34012G20KT 9SM SCT010 OVC013 10/07 A2995 RMK AO1 PRESRR SLP142
SPECI CYNL 161634Z AUTO 35012G20KT 9SM OVC010 10/08 A2993 RMK AO1 PRESRR SLP133
SPECI CYNL 161630Z AUTO 34013G20KT 9SM BKN009 BKN012 OVC016 11/08 A2992 RMK AO1 PRESRR SLP131
SPECI CYNL 161629Z AUTO 34012G20KT 9SM SCT009 BKN011 OVC014 11/08 A2992 RMK AO1 PRESRR SLP131
SPECI CYNL 161620Z AUTO 34012G18KT 9SM BKN010 BKN013 OVC017 11/09 A2992 RMK AO1 PRESRR SLP127
SPECI CYNL 161619Z AUTO 34011G20KT 9SM BKN009 BKN014 OVC020 11/09 A2991 RMK AO1 PRESRR SLP127
METAR CYNL 161600Z AUTO 33009G21KT 7SM FEW008 BKN011 BKN014 12/11 A2990 RMK AO1 PRESRR SLP121
SPECI CYNL 161559Z AUTO 33008G21KT 4SM BKN010 BKN014 OVC220 12/11 A2990 RMK AO1 PRESRR SLP121
SPECI CYNL 161558Z AUTO 33011G21KT 2 1/2SM BKN010 BKN014 OVC220 12/11 A2990 RMK AO1 PRESRR SLP119
SPECI CYNL 161557Z AUTO 33012G21KT 2SM VV015 13/11 A2989 RMK AO1 PRESRR SLP119
SPECI CYNL 161556Z AUTO 32013G21KT 1 3/4SM VV015 13/11 A2989 RMK AO1 PRESRR SLP118
SPECI CYNL 161555Z AUTO 32012G21KT 1 3/4SM BKN011 BKN015 13/11 A2989 RMK AO1 PRESRR SLP117
SPECI CYNL 161553Z AUTO 30014G21KT 1 1/4SM BKN011 BKN016 13/11 A2989 RMK AO1 PRESRR SLP115
SPECI CYNL 161552Z AUTO 29016KT 1 3/4SM BKN011 BKN015 14/11 A2988 RMK AO1 PRESRR SLP114
SPECI CYNL 161532Z AUTO 29008G23KT 9SM BKN011 13/10 A2987 RMK AO1 PRESRR SLP110
SPECI CYNL 161528Z AUTO 29010G23KT 9SM SCT012 BKN020 13/10 A2987 RMK AO1 PRESRR SLP110
SPECI CYNL 161524Z AUTO 29014G19KT 9SM SCT012 BKN041 13/10 A2987 RMK AO1 PRESRR SLP110
SPECI CYNL 161520Z AUTO 28011G18KT 9SM SCT013 BKN018 13/10 A2987 RMK AO1 PRESRR SLP110
SPECI CYNL 161518Z AUTO 29012G18KT 9SM VV014 13/10 A2987 RMK AO1 PRESRR SLP110
SPECI CYNL 161512Z AUTO 28012G23KT 8SM FEW012 SCT017 BKN021 13/10 A2987 RMK AO1 PRESRR SLP108
SPECI CYNL 161502Z AUTO 30014G25KT 9SM SCT017 BKN160 13/09 A2986 RMK AO1 PRESRR SLP106
METAR CYNL 161500Z AUTO 30016G25KT 9SM BKN017 13/09 A2986 RMK AO1 PRESRR SLP105
SPECI CYNL 161442Z AUTO 30012G21KT 9SM SCT017 BKN021 14/10 A2984 RMK AO1 PRESRR SLP095
METAR CYNL 161400Z AUTO 29017G24KT 9SM FEW017 SCT026 14/09 A2982 RMK AO1 PRESRR SLP087
SPECI CYNL 161358Z AUTO 29016G24KT 9SM FEW017 SCT026 14/09 A2982 RMK AO1 PRESRR SLP086
SPECI CYNL 161348Z AUTO 28012G20KT 9SM SCT017 OVC025 14/09 A2981 RMK AO1 PRESRR SLP085
SPECI CYNL 161312Z AUTO 29012G21KT 9SM BKN018 14/10 A2980 RMK AO1 PRESRR SLP079
SPECI CYNL 161309Z AUTO 29012G21KT 9SM SCT018 14/09 A2979 RMK AO1 PRESRR SLP079
METAR CYNL 161300Z AUTO 29013G20KT 9SM BKN018 14/09 A2979 RMK AO1 PRESRR SLP077
METAR CYNL 161200Z AUTO 30012G21KT 9SM BKN017 OVC023 14/10 A2977 RMK AO1 PRESRR SLP070
SPECI CYNL 161124Z AUTO 29012G20KT 9SM SCT017 BKN022 14/11 A2975 RMK AO1 PRESRR SLP065
METAR CYNL 161100Z AUTO 29009G17KT 9SM FEW017 14/11 A2974 RMK AO1 PRESRR SLP061
METAR CYNL 161000Z AUTO 30013G23KT 9SM CLR 15/12 A2971 RMK AO1 PRESRR SLP048
SPECI CYNL 160908Z AUTO 30013G24KT 9SM SCT012 16/13 A2969 RMK AO1 PRESRR SLP034
SPECI CYNL 160904Z AUTO 29014G23KT 9SM SCT012 BKN016 16/13 A2969 RMK AO1 PRESRR SLP034
METAR CYNL 160900Z AUTO 29014G25KT 9SM BKN012 16/13 A2968 RMK AO1 PRESRR SLP034
SPECI CYNL 160838Z AUTO 30014G22KT 9SM SCT011 BKN014 16/14 A2968 RMK AO1 SLP028
SPECI CYNL 160836Z AUTO 30013G22KT 9SM SCT012 BKN017 16/14 A2968 RMK AO1 SLP028
SPECI CYNL 160827Z AUTO 30010G20KT 9SM SCT011 16/14 A2967 RMK AO1 SLP025
SPECI CYNL 160807Z AUTO 30016G21KT 9SM BKN012 16/15 A2967 RMK AO1 SLP024
METAR CYNL 160800Z AUTO 29010G16KT 9SM FEW012 SCT060 16/15 A2966 RMK AO1 SLP023
METAR CYNL 160700Z AUTO 29010KT 9SM CLR 17/13 A2965 RMK AO1 PRESRR SLP017
METAR CYNL 160600Z AUTO 24003KT 9SM CLR 17/16 A2962 RMK AO1 SLP010
METAR CYNL 160500Z AUTO 15004KT 9SM CLR 18/15 A2962 RMK AO1 SLP008
SPECI CYNL 160420Z AUTO 18007KT 3SM CLR 18/16 A2962 RMK AO1 SLP010
SPECI CYNL 160418Z AUTO 18009KT 2 1/2SM CLR 18/16 A2961 RMK AO1 SLP009
METAR CYNL 160400Z AUTO 23006KT 9SM CLR 19/15 A2960 RMK AO1 SLP003
SPECI CYNL 160334Z AUTO 18013G23KT 7SM FEW014 21/14 A2960 RMK AO1 PRESRR SLP002
SPECI CYNL 160333Z AUTO 18015G23KT 2 1/2SM FEW014 22/14 A2960 RMK AO1 PRESRR SLP002
SPECI CYNL 160331Z AUTO 19015G23KT 1 3/4SM FEW016 22/14 A2960 RMK AO1 PRESRR SLP004
METAR CYNL 160300Z AUTO 20007KT 9SM CLR 23/11 A2960 RMK AO1 PRESRR SLP004
METAR CYNL 160200Z AUTO 28003KT 9SM CLR 23/17 A2958 RMK AO1 SLP996
METAR CYNL 160100Z AUTO 18005KT 9SM CLR 23/16 A2958 RMK AO1 SLP001
METAR CYNL 160000Z AUTO 32004KT 9SM FEW002 21/18 A2959 RMK AO1 SLP005
SPECI CYNL 152325Z AUTO 34005KT 4SM FEW003 SCT019 BKN042 22/17 A2959 RMK AO1 SLP005
SPECI CYNL 152323Z AUTO 35005KT 2SM VV022 22/16 A2959 RMK AO1 SLP004
SPECI CYNL 152321Z AUTO 01004KT 2SM FEW006 SCT021 BKN043 22/18 A2959 RMK AO1 SLP004
SPECI CYNL 152320Z AUTO 01004KT 1 3/4SM VV026 22/17 A2959 RMK AO1 SLP005
SPECI CYNL 152316Z AUTO 33004KT 2SM FEW005 SCT044 23/17 A2959 RMK AO1 SLP005
SPECI CYNL 152315Z AUTO 32004KT 1 3/4SM FEW006 SCT044 23/17 A2959 RMK AO1 SLP005
SPECI CYNL 152314Z AUTO 32005KT 2SM FEW007 SCT044 23/14 A2959 RMK AO1 SLP005
SPECI CYNL 152313Z AUTO 32004KT 3SM FEW005 SCT043 23/13 A2959 RMK AO1 SLP004
SPECI CYNL 152309Z AUTO 32004KT 3SM FEW018 23/14 A2958 RMK AO1 SLP002
SPECI CYNL 152308Z AUTO 34004KT 1 3/4SM FEW018 23/16 A2958 RMK AO1 SLP002
SPECI CYNL 152307Z AUTO 34005KT 1 1/4SM FEW018 24/17 A2958 RMK AO1 SLP002
SPECI CYNL 152306Z AUTO 34006KT 1 3/4SM FEW008 24/17 A2958 RMK AO1 SLP002
SPECI CYNL 152305Z AUTO 33006KT 2SM FEW010 24/16 A2958 RMK AO1 SLP002
SPECI CYNL 152304Z AUTO 33006KT 3SM FEW009 24/15 A2958 RMK AO1 SLP001
METAR CYNL 152300Z AUTO 33005KT 9SM FEW023 25/15 A2958 RMK AO1 SLP001
METAR CYNL 152200Z AUTO 25006KT 6SM FEW004 29/10 A2958 RMK AO1 SLP997
SPECI CYNL 152159Z AUTO 25007KT 6SM FEW006 29/09 A2958 RMK AO1 SLP997
METAR CYNL 152100Z AUTO 24009G21KT 9SM CLR 32/07 A2959 RMK AO1 SLP996
METAR CYNL 152000Z AUTO 25012G19KT 9SM CLR 31/07 A2959 RMK AO1 SLP998
METAR CYNL 151900Z AUTO 20012KT 8SM CLR 30/13 A2960 RMK AO1 SLP001
METAR CYNL 151800Z AUTO 21010G16KT 6SM CLR 28/14 A2961 RMK AO1 SLP007
METAR CYNL 151700Z AUTO 19009KT 6SM CLR 26/14 A2962 RMK AO1 SLP012
METAR CYNL 151600Z AUTO 20010KT 4SM CLR 24/13 A2965 RMK AO1 SLP021
METAR CYNL 151500Z AUTO 20009KT 4SM CLR 22/13 A2966 RMK AO1 SLP025
METAR CYNL 151400Z AUTO 18008KT 3SM CLR 20/12 A2967 RMK AO1 PRESFR SLP030
SPECI CYNL 151357Z AUTO 18008KT 3SM CLR 20/12 A2967 RMK AO1 SLP030
SPECI CYNL 151356Z AUTO 18008KT 2 1/2SM CLR 19/12 A2968 RMK AO1 SLP030
SPECI CYNL 151354Z AUTO 18007KT 3SM CLR 19/12 A2968 RMK AO1 SLP031
SPECI CYNL 151353Z AUTO 19006KT 2 1/2SM CLR 19/12 A2968 RMK AO1 SLP031
SPECI CYNL 151347Z AUTO 19007KT 3SM CLR 19/12 A2968 RMK AO1 SLP031
SPECI CYNL 151344Z AUTO 19007KT 2 1/2SM CLR 19/12 A2968 RMK AO1 SLP031
SPECI CYNL 151342Z AUTO 19006KT 3SM CLR 19/12 A2968 RMK AO1 SLP032
SPECI CYNL 151335Z AUTO 18006KT 2 1/2SM CLR 19/12 A2968 RMK AO1 SLP033
SPECI CYNL 151329Z AUTO 18007KT 3SM CLR 19/12 A2968 RMK AO1 SLP034
SPECI CYNL 151328Z AUTO 18007KT 2 1/2SM CLR 19/12 A2968 RMK AO1 SLP034
SPECI CYNL 151321Z AUTO 19006KT 3SM CLR 19/12 A2969 RMK AO1 SLP034
SPECI CYNL 151320Z AUTO 19006KT 2 1/2SM CLR 19/12 A2969 RMK AO1 SLP034
SPECI CYNL 151302Z AUTO 20005KT 3SM CLR 19/11 A2970 RMK AO1 SLP038
METAR CYNL 151300Z AUTO 20006KT 2 1/2SM CLR 19/11 A2970 RMK AO1 SLP038
SPECI CYNL 151244Z AUTO 20006KT 3SM CLR 18/11 A2970 RMK AO1 SLP040
SPECI CYNL 151243Z AUTO 20006KT 2 1/2SM CLR 18/11 A2970 RMK AO1 SLP040
SPECI CYNL 151238Z AUTO 20005KT 3SM CLR 18/11 A2970 RMK AO1 SLP041
SPECI CYNL 151237Z AUTO 19004KT 2 1/2SM CLR 18/11 A2970 RMK AO1 SLP041
SPECI CYNL 151208Z AUTO 19006KT 3SM CLR 17/11 A2971 RMK AO1 SLP043
METAR CYNL 151200Z AUTO 19006KT 2 1/2SM CLR 17/11 A2971 RMK AO1 SLP045
METAR CYNL 151100Z AUTO 19005KT 2 1/2SM CLR 17/10 A2973 RMK AO1 SLP049
METAR CYNL 151000Z AUTO 21007KT 2 1/2SM CLR 17/09 A2974 RMK AO1 SLP053
SPECI CYNL 150908Z AUTO 21006KT 2 1/2SM CLR 17/09 A2975 RMK AO1 SLP056
METAR CYNL 150900Z AUTO 20006KT 3SM CLR 17/08 A2975 RMK AO1 SLP056
METAR CYNL 150800Z AUTO 20006KT 4SM CLR 18/09 A2976 RMK AO1 SLP060
METAR CYNL 150700Z AUTO 20005KT 5SM CLR 19/09 A2977 RMK AO1 SLP061
METAR CYNL 150600Z AUTO 21006KT 9SM CLR 19/10 A2978 RMK AO1 SLP066
METAR CYNL 150500Z AUTO 22005KT 9SM CLR 20/11 A2979 RMK AO1 SLP070
METAR CYNL 150400Z AUTO 19007KT 7SM CLR 21/11 A2979 RMK AO1 SLP069
METAR CYNL 150300Z AUTO 19006KT 9SM CLR 24/11 A2979 RMK AO1 SLP069
METAR CYNL 150200Z AUTO 19007KT 9SM CLR 25/10 A2980 RMK AO1 SLP070
METAR CYNL 150100Z AUTO 20008KT 9SM CLR 25/09 A2981 RMK AO1 SLP075
METAR CYNL 150000Z AUTO 21009KT 9SM CLR 26/09 A2982 RMK AO1 PRESFR SLP081
METAR CYNL 142300Z AUTO 20009KT 9SM FEW230 26/09 A2984 RMK AO1 SLP092
METAR CYNL 142200Z AUTO 20011G17KT 9SM CLR 27/08 A2986 RMK AO1 SLP098
SPECI CYNL 142108Z AUTO 24010KT 9SM CLR 27/08 A2988 RMK AO1 WSHFT (21)08 PRESFR SLP105
METAR CYNL 142100Z AUTO 22008G15KT 9SM CLR 27/08 A2988 RMK AO1 PRESFR SLP106
SPECI CYNL 142025Z AUTO 23010G23KT 9SM CLR 27/07 A2989 RMK AO1 WSHFT (20)25 PRESFR SLP110
METAR CYNL 142000Z AUTO 19008G17KT 9SM CLR 26/07 A2990 RMK AO1 PRESFR SLP113
METAR CYNL 141900Z AUTO 22010G18KT 9SM CLR 25/06 A2992 RMK AO1 PRESFR SLP121
METAR CYNL 141800Z AUTO 21010G19KT 9SM CLR 25/05 A2994 RMK AO1 SLP129
METAR CYNL 141700Z AUTO 22010G18KT 9SM CLR 24/05 A2996 RMK AO1 SLP135
METAR CYNL 141600Z AUTO 20010G16KT 9SM CLR 23/06 A2998 RMK AO1 SLP141
METAR CYNL 141500Z AUTO 23008KT 8SM CLR 22/07 A3000 RMK AO1 SLP146
METAR CYNL 141400Z AUTO 23006KT 9SM CLR 20/08 A3001 RMK AO1 SLP147
METAR CYNL 141300Z AUTO 24004KT 6SM CLR 17/09 A3002 RMK AO1 SLP153
METAR CYNL 141200Z AUTO 24003KT 9SM CLR 14/10 A3003 RMK AO1 SLP157
METAR CYNL 141100Z AUTO 23003KT 9SM CLR 12/10 A3004 RMK AO1 SLP163
METAR CYNL 141000Z AUTO 24003KT 9SM CLR 12/11 A3004 RMK AO1 SLP167
METAR CYNL 140900Z AUTO 24004KT 9SM FEW076 12/10 A3005 RMK AO1 SLP169
METAR CYNL 140800Z AUTO 23004KT 9SM CLR 12/10 A3006 RMK AO1 SLP169
METAR CYNL 140700Z AUTO 00000KT 9SM CLR 12/09 A3006 RMK AO1 SLP172
METAR CYNL 140600Z AUTO 21003KT 9SM CLR 13/09 A3006 RMK AO1 SLP172
METAR CYNL 140500Z AUTO 16002KT 9SM CLR 15/10 A3007 RMK AO1 SLP172
METAR CYNL 140400Z AUTO 20002KT 9SM CLR 17/10 A3007 RMK AO1 SLP172
METAR CYNL 140300Z AUTO 00000KT 9SM CLR 23/06 A3006 RMK AO1 SLP166
METAR CYNL 140200Z AUTO 00002KT 9SM CLR 24/05 A3007 RMK AO1 SLP168
METAR CYNL 140100Z AUTO 30005KT 9SM CLR 24/04 A3008 RMK AO1 SLP173
METAR CYNL 140000Z AUTO 00000KT 9SM FEW088 23/04 A3008 RMK AO1 SLP178
METAR CYNL 132300Z AUTO 29003KT 9SM FEW090 22/05 A3009 RMK AO1 SLP182
METAR CYNL 132200Z AUTO 33006KT 300V010 9SM FEW092 22/04 A3010 RMK AO1 SLP187
METAR CYNL 132100Z AUTO 29007KT 250V320 9SM CLR 23/05 A3011 RMK AO1 SLP190
METAR CYNL 132000Z AUTO 33007KT 300V010 9SM FEW150 22/06 A3011 RMK AO1 SLP191
METAR CYNL 131900Z AUTO 30008KT 270V330 9SM FEW078 21/07 A3012 RMK AO1 SLP194
METAR CYNL 131800Z AUTO 31007KT 280V350 9SM FEW048 21/08 A3013 RMK AO1 SLP197
METAR CYNL 131700Z AUTO 32008KT 280V350 9SM CLR 20/09 A3013 RMK AO1 SLP197
METAR CYNL 131600Z AUTO 30007KT 9SM CLR 19/10 A3013 RMK AO1 SLP199
METAR CYNL 131500Z AUTO 27004KT 9SM CLR 18/11 A3013 RMK AO1 SLP200
METAR CYNL 131400Z AUTO 27002KT 9SM CLR 16/12 A3013 RMK AO1 SLP201
METAR CYNL 131300Z AUTO 28006KT 9SM CLR 13/12 A3013 RMK AO1 SLP202
METAR CYNL 131200Z AUTO 30004KT 9SM CLR 13/12 A3012 RMK AO1 SLP198
METAR CYNL 131100Z AUTO 31005KT 9SM CLR 11/11 A3011 RMK AO1 SLP194
METAR CYNL 131000Z AUTO 29005KT 9SM CLR 11/11 A3009 RMK AO1 SLP187
METAR CYNL 130900Z AUTO 31005KT 9SM CLR 11/11 A3008 RMK AO1 SLP182
METAR CYNL 130800Z AUTO 31004KT 9SM CLR 11/11 A3007 RMK AO1 SLP180
METAR CYNL 130700Z AUTO 31005KT 9SM CLR 12/12 A3006 RMK AO1 SLP176
METAR CYNL 130600Z AUTO 29006KT 9SM CLR 12/12 A3005 RMK AO1 SLP171
METAR CYNL 130500Z AUTO 29005KT 9SM CLR 13/12 A3004 RMK AO1 SLP168
METAR CYNL 130400Z AUTO 27003KT 9SM FEW160 13/13 A3003 RMK AO1 SLP167
METAR CYNL 130300Z AUTO 30002KT 9SM FEW003 SCT032 14/13 A3002 RMK AO1 SLP162
SPECI CYNL 130245Z AUTO 00000KT 9SM FEW003 SCT023 BKN037 14/12 A3002 RMK AO1 SLP163
SPECI CYNL 130244Z AUTO 00000KT 2 1/2SM FEW003 SCT023 BKN036 14/12 A3002 RMK AO1 SLP163
SPECI CYNL 130243Z AUTO 00000KT 1 1/4SM VV024 14/12 A3002 RMK AO1 SLP163
SPECI CYNL 130242Z AUTO 33002KT 1SM VV027 14/12 A3002 RMK AO1 SLP164
SPECI CYNL 130239Z AUTO 33002KT 1 1/4SM FEW004 SCT023 BKN044 14/13 A3002 RMK AO1 SLP164
SPECI CYNL 130236Z AUTO 32004KT 1 1/4SM SCT023 BKN043 BKN062 14/12 A3002 RMK AO1 SLP165
SPECI CYNL 130209Z AUTO 35005KT 9SM SCT021 BKN037 BKN049 14/11 A3002 RMK AO1 SLP162
METAR CYNL 130200Z AUTO 00004KT 9SM SCT021 BKN028 BKN052 14/11 A3002 RMK AO1 SLP162
SPECI CYNL 130158Z AUTO 00005KT 9SM SCT020 BKN028 BKN052 14/11 A3002 RMK AO1 SLP164
METAR CYNL 130100Z AUTO 26005KT 9SM FEW040 SCT058 BKN078 15/12 A3000 RMK AO1 SLP158
SPECI CYNL 130044Z AUTO 26008KT 3SM FEW026 BKN041 BKN056 14/12 A3000 RMK AO1 SLP160
SPECI CYNL 130042Z AUTO 28010KT 1 3/4SM BKN040 BKN050 14/12 A3000 RMK AO1 SLP160
SPECI CYNL 130041Z AUTO 28010KT 2 1/2SM BKN041 BKN058 15/12 A3000 RMK AO1 SLP160
METAR CYNL 130000Z AUTO 26003KT 9SM FEW044 SCT090 17/12 A2999 RMK AO1 SLP151
METAR CYNL 122300Z AUTO 31007KT 9SM FEW058 19/08 A2997 RMK AO1 SLP145
METAR CYNL 122200Z AUTO 34009KT 9SM FEW047 20/07 A2996 RMK AO1 SLP140
METAR CYNL 122100Z AUTO 29008KT 9SM FEW050 SCT190 18/08 A2996 RMK AO1 SLP140
METAR CYNL 122000Z AUTO 31011G16KT 9SM SCT110 17/07 A2995 RMK AO1 SLP139
METAR CYNL 121900Z AUTO 32006G15KT 9SM FEW120 SCT210 17/07 A2994 RMK AO1 SLP132
METAR CYNL 121800Z AUTO 32006KT 9SM FEW033 18/08 A2992 RMK AO1 SLP125
METAR CYNL 121700Z AUTO 34009G17KT 9SM SCT031 16/08 A2991 RMK AO1 SLP122
METAR CYNL 121600Z AUTO 35010G17KT 9SM FEW031 SCT210 16/08 A2989 RMK AO1 SLP117
SPECI CYNL 121538Z AUTO 32010G21KT 9SM SCT028 BKN210 16/08 A2989 RMK AO1 PRESRR SLP116
SPECI CYNL 121536Z AUTO 33012G21KT 9SM BKN027 16/08 A2989 RMK AO1 PRESRR SLP116
SPECI CYNL 121531Z AUTO 35011G17KT 9SM SCT027 BKN033 16/08 A2989 RMK AO1 PRESRR SLP117
METAR CYNL 121500Z AUTO 34006KT 9SM FEW020 BKN028 14/09 A2988 RMK AO1 PRESRR SLP115
SPECI CYNL 121436Z AUTO 32008KT 9SM FEW013 OVC025 13/10 A2988 RMK AO1 SLP114
SPECI CYNL 121427Z AUTO 32006KT 9SM FEW014 OVC024 13/10 A2987 RMK AO1 SLP113
SPECI CYNL 121416Z AUTO 33009KT 9SM FEW014 SCT019 OVC026 13/10 A2987 RMK AO1 SLP112
SPECI CYNL 121415Z AUTO 32007KT 9SM FEW014 SCT019 BKN021 13/10 A2987 RMK AO1 SLP111
SPECI CYNL 121413Z AUTO 33007KT 9SM FEW014 SCT019 OVC026 13/10 A2987 RMK AO1 SLP111
METAR CYNL 121400Z AUTO 34010G16KT 9SM BKN017 OVC028 13/09 A2986 RMK AO1 SLP109
SPECI CYNL 121351Z AUTO 33008G17KT 9SM SCT017 BKN022 OVC027 12/10 A2986 RMK AO1 PRESRR SLP107
SPECI CYNL 121347Z AUTO 34008G17KT 9SM FEW015 SCT018 OVC026 12/10 A2986 RMK AO1 PRESRR SLP106
SPECI CYNL 121346Z AUTO 34008G18KT 9SM BKN017 OVC026 12/10 A2986 RMK AO1 PRESRR SLP106
SPECI CYNL 121340Z AUTO 34010G18KT 9SM SCT016 OVC025 12/10 A2985 RMK AO1 PRESRR SLP105
SPECI CYNL 121323Z AUTO 33010G15KT 9SM SCT013 BKN015 OVC023 12/10 A2985 RMK AO1 PRESRR SLP103
SPECI CYNL 121322Z AUTO 33009G15KT 9SM BKN013 OVC023 12/10 A2985 RMK AO1 PRESRR SLP103
SPECI CYNL 121319Z AUTO 34010G16KT 9SM SCT013 BKN015 OVC022 12/10 A2985 RMK AO1 PRESRR SLP103
SPECI CYNL 121318Z AUTO 33011G16KT 9SM BKN013 OVC022 12/10 A2985 RMK AO1 PRESRR SLP103
SPECI CYNL 121315Z AUTO 33010G16KT 9SM SCT012 BKN015 OVC022 12/10 A2985 RMK AO1 PRESRR SLP102
METAR CYNL 121300Z AUTO 34009G16KT 9SM FEW010 OVC014 12/10 A2985 RMK AO1 PRESRR SLP103
SPECI CYNL 121235Z AUTO 33014G21KT 7SM FEW008 BKN010 OVC031 12/11 A2983 RMK AO1 PRESRR SLP098
SPECI CYNL 121233Z AUTO 33010G17KT 9SM BKN009 OVC030 12/11 A2983 RMK AO1 PRESRR SLP098
SPECI CYNL 121232Z AUTO 33009G17KT 9SM FEW008 BKN010 OVC029 12/11 A2983 RMK AO1 PRESRR SLP098
SPECI CYNL 121231Z AUTO 32009G16KT 9SM BKN009 OVC031 12/11 A2983 RMK AO1 PRESRR SLP097
SPECI CYNL 121225Z AUTO 32012KT 9SM FEW008 SCT010 BKN014 12/11 A2983 RMK AO1 PRESRR SLP097
SPECI CYNL 121220Z AUTO 33007G17KT 3SM SCT009 BKN024 OVC031 12/11 A2983 RMK AO1 PRESRR SLP096
SPECI CYNL 121219Z AUTO 33008G17KT 2 1/2SM FEW009 SCT018 OVC031 12/11 A2983 RMK AO1 PRESRR SLP096
SPECI CYNL 121214Z AUTO 33009G18KT 9SM FEW009 SCT018 OVC031 12/11 A2982 RMK AO1 PRESRR SLP095
SPECI CYNL 121209Z AUTO 34009G21KT 9SM SCT009 BKN025 OVC030 12/11 A2982 RMK AO1 PRESRR SLP094
SPECI CYNL 121206Z AUTO 34011G21KT 9SM SCT009 BKN018 BKN024 12/11 A2982 RMK AO1 PRESRR SLP094
SPECI CYNL 121205Z AUTO 34013G21KT 9SM SCT009 BKN012 BKN024 12/11 A2982 RMK AO1 PRESRR SLP094
METAR CYNL 121200Z AUTO 33009G19KT 9SM SCT008 BKN018 BKN024 12/11 A2982 RMK AO1 PRESRR SLP093
SPECI CYNL 121158Z AUTO 34010G19KT 9SM SCT008 BKN018 BKN024 12/11 A2982 RMK AO1 PRESRR SLP095
SPECI CYNL 121153Z AUTO 34013G19KT 9SM SCT008 BKN012 BKN018 12/11 A2982 RMK AO1 PRESRR SLP094
SPECI CYNL 121142Z AUTO 33009G18KT 3SM BKN009 OVC012 12/11 A2981 RMK AO1 PRESRR SLP092
SPECI CYNL 121137Z AUTO 32009G18KT 5SM SCT008 OVC011 12/11 A2981 RMK AO1 PRESRR SLP091
SPECI CYNL 121134Z AUTO 33012G18KT 7SM FEW006 BKN008 OVC011 12/11 A2981 RMK AO1 PRESRR SLP091
SPECI CYNL 121130Z AUTO 33012KT 7SM FEW006 OVC010 12/11 A2980 RMK AO1 PRESRR SLP090
SPECI CYNL 121129Z AUTO 32011G17KT 8SM FEW006 BKN009 BKN012 12/11 A2980 RMK AO1 PRESRR SLP090
SPECI CYNL 121128Z AUTO 32010G17KT 9SM FEW006 BKN010 OVC017 12/11 A2980 RMK AO1 PRESRR SLP090
SPECI CYNL 121127Z AUTO 33008G17KT 9SM FEW006 BKN009 BKN013 12/11 A2980 RMK AO1 PRESRR SLP090
SPECI CYNL 121111Z AUTO 32010G18KT 4SM SCT007 BKN010 OVC019 12/11 A2980 RMK AO1 PRESRR SLP088
SPECI CYNL 121107Z AUTO 32009G19KT 2SM SCT007 BKN014 OVC019 12/12 A2980 RMK AO1 PRESRR SLP088
SPECI CYNL 121106Z AUTO 32010G19KT 1 1/2SM SCT007 BKN014 OVC019 12/12 A2980 RMK AO1 PRESRR SLP088
SPECI CYNL 121103Z AUTO 32010G19KT 1 1/4SM FEW007 SCT010 BKN014 12/12 A2980 RMK AO1 PRESRR SLP088
SPECI CYNL 121101Z AUTO 32008G19KT 1 3/4SM FEW007 SCT010 BKN014 12/12 A2980 RMK AO1 PRESRR SLP088
METAR CYNL 121100Z AUTO 32008G19KT 2 1/2SM FEW007 SCT010 BKN014 12/12 A2980 RMK AO1 PRESRR SLP087
SPECI CYNL 121057Z AUTO 31013G19KT 2 1/2SM SCT007 BKN010 BKN019 12/11 A2979 RMK AO1 SLP085
SPECI CYNL 121051Z AUTO 31010G15KT 9SM FEW005 SCT008 BKN011 12/11 A2979 RMK AO1 SLP084
SPECI CYNL 121047Z AUTO 31010G18KT 4SM SCT005 BKN009 OVC019 12/12 A2979 RMK AO1 SLP084
SPECI CYNL 121041Z AUTO 32009G18KT 2 1/2SM SCT006 BKN009 OVC017 12/12 A2979 RMK AO1 SLP082
SPECI CYNL 121038Z AUTO 33010G15KT 3SM SCT006 BKN009 BKN013 12/12 A2978 RMK AO1 SLP081
SPECI CYNL 121037Z AUTO 32010KT 2 1/2SM BKN006 OVC020 12/12 A2978 RMK AO1 SLP081
SPECI CYNL 121035Z AUTO 32009KT 1 1/2SM BKN006 OVC020 12/12 A2978 RMK AO1 SLP080
SPECI CYNL 121028Z AUTO 31009G20KT 1 1/4SM BKN006 OVC021 12/12 A2978 RMK AO1 SLP079
SPECI CYNL 121027Z AUTO 31010G20KT 1 1/4SM SCT006 BKN012 OVC021 12/12 A2978 RMK AO1 SLP079
SPECI CYNL 121025Z AUTO 31007G20KT 1 3/4SM SCT006 BKN012 OVC020 12/12 A2978 RMK AO1 SLP079
SPECI CYNL 121024Z AUTO 30007G20KT 2SM SCT006 BKN012 OVC020 12/12 A2978 RMK AO1 SLP078
SPECI CYNL 121022Z AUTO 30011G20KT 1 1/2SM SCT006 BKN012 OVC020 12/12 A2978 RMK AO1 SLP078
SPECI CYNL 121018Z AUTO 31009G17KT 1 1/4SM SCT006 BKN012 OVC021 12/12 A2978 RMK AO1 SLP078
SPECI CYNL 121016Z AUTO 31008G17KT 1 3/4SM SCT006 BKN012 OVC020 12/12 A2978 RMK AO1 SLP078
SPECI CYNL 121015Z AUTO 31007G17KT 2 1/2SM SCT006 BKN012 OVC020 12/12 A2978 RMK AO1 SLP077
SPECI CYNL 121005Z AUTO 31008G15KT 5SM SCT006 BKN011 OVC015 13/12 A2977 RMK AO1 SLP075
SPECI CYNL 121003Z AUTO 31008G15KT 2SM SCT006 BKN011 BKN014 13/13 A2977 RMK AO1 SLP075
METAR CYNL 121000Z AUTO 31007G15KT 1 1/2SM SCT006 BKN011 BKN013 13/13 A2977 RMK AO1 SLP074
SPECI CYNL 120958Z AUTO 31007G15KT 1 3/4SM SCT006 BKN012 OVC017 13/12 A2977 RMK AO1 SLP071
SPECI CYNL 120956Z AUTO 32007G15KT 2SM FEW006 SCT008 BKN011 13/12 A2977 RMK AO1 PRESRR SLP071
SPECI CYNL 120953Z AUTO 32008G19KT 1 3/4SM FEW007 BKN012 OVC016 13/12 A2976 RMK AO1 PRESRR SLP070
SPECI CYNL 120945Z AUTO 32012G19KT 2 1/2SM FEW008 SCT011 BKN014 13/12 A2976 RMK AO1 PRESRR SLP068
SPECI CYNL 120937Z AUTO 32011G19KT 9SM FEW007 SCT009 BKN011 13/12 A2976 RMK AO1 PRESRR SLP068
SPECI CYNL 120933Z AUTO 31010G19KT 3SM SCT007 BKN009 BKN012 13/12 A2976 RMK AO1 PRESRR SLP068
SPECI CYNL 120931Z AUTO 31010G18KT 2SM SCT006 BKN009 BKN012 13/13 A2976 RMK AO1 PRESRR SLP068
SPECI CYNL 120930Z AUTO 30011G18KT 1 3/4SM SCT007 BKN009 OVC016 13/13 A2976 RMK AO1 PRESRR SLP068
SPECI CYNL 120929Z AUTO 31009G18KT 2SM SCT006 BKN009 BKN013 13/13 A2976 RMK AO1 PRESRR SLP068
SPECI CYNL 120926Z AUTO 31012G18KT 1 3/4SM SCT006 BKN009 BKN013 13/12 A2976 RMK AO1 PRESRR SLP068
SPECI CYNL 120924Z AUTO 30012KT 2 1/2SM SCT006 BKN009 OVC013 13/12 A2976 RMK AO1 PRESRR SLP068
SPECI CYNL 120922Z AUTO 31009G17KT 3SM BKN006 BKN009 OVC013 13/13 A2976 RMK AO1 PRESRR SLP067
SPECI CYNL 120920Z AUTO 32009G17KT 2 1/2SM BKN007 OVC014 13/13 A2976 RMK AO1 PRESRR SLP067
SPECI CYNL 120916Z AUTO 31009G17KT 3SM SCT006 BKN008 OVC013 13/13 A2975 RMK AO1 PRESRR SLP066
SPECI CYNL 120912Z AUTO 30010G17KT 2SM SCT006 BKN008 OVC016 13/13 A2975 RMK AO1 PRESRR SLP066
SPECI CYNL 120909Z AUTO 30010G16KT 1 1/2SM SCT006 BKN009 BKN014 13/13 A2975 RMK AO1 PRESRR SLP065
SPECI CYNL 120908Z AUTO 29008G16KT 1 1/2SM SCT006 BKN010 BKN014 13/13 A2975 RMK AO1 PRESRR SLP065
SPECI CYNL 120906Z AUTO 29009G16KT 1 3/4SM BKN006 BKN014 OVC017 13/13 A2975 RMK AO1 PRESRR SLP065
SPECI CYNL 120903Z AUTO 30009G16KT 2SM BKN006 OVC014 13/13 A2975 RMK AO1 PRESRR SLP065
SPECI CYNL 120901Z AUTO 29010G16KT 1 1/2SM BKN007 OVC015 13/13 A2975 RMK AO1 PRESRR SLP065
METAR CYNL 120900Z AUTO 29009G15KT 1 1/4SM BKN007 OVC014 13/13 A2975 RMK AO1 PRESRR SLP064
SPECI CYNL 120858Z AUTO 29009KT 1 1/4SM SCT007 BKN014 OVC017 13/13 A2975 RMK AO1 PRESRR SLP062
SPECI CYNL 120856Z AUTO 29009G19KT 1 1/2SM SCT007 BKN014 OVC018 13/13 A2975 RMK AO1 SLP062
SPECI CYNL 120855Z AUTO 29010G19KT 1 1/4SM SCT008 BKN014 OVC018 13/13 A2975 RMK AO1 SLP062
SPECI CYNL 120853Z AUTO 28009G19KT 1 1/4SM FEW007 SCT010 OVC016 13/13 A2975 RMK AO1 SLP062
SPECI CYNL 120852Z AUTO 28009G19KT 1 1/2SM FEW007 SCT010 OVC016 13/13 A2975 RMK AO1 SLP062
SPECI CYNL 120850Z AUTO 28008G19KT 1 3/4SM FEW007 SCT010 BKN014 13/13 A2975 RMK AO1 SLP062
SPECI CYNL 120849Z AUTO 29009G19KT 1 3/4SM FEW008 SCT010 OVC016 13/13 A2975 RMK AO1 SLP062
SPECI CYNL 120846Z AUTO 29011G19KT 2SM FEW008 SCT011 OVC017 13/13 A2974 RMK AO1 SLP062
SPECI CYNL 120845Z AUTO 29010G19KT 1 3/4SM FEW008 SCT011 OVC017 13/13 A2974 RMK AO1 SLP061
SPECI CYNL 120844Z AUTO 29010G19KT 1 1/2SM VV015 13/13 A2974 RMK AO1 SLP061
SPECI CYNL 120836Z AUTO 29008G17KT 1 1/4SM FEW008 BKN010 BKN016 14/13 A2974 RMK AO1 SLP060
SPECI CYNL 120835Z AUTO 28009G17KT 1 1/2SM FEW008 BKN010 OVC020 14/13 A2974 RMK AO1 SLP060
SPECI CYNL 120834Z AUTO 29009G17KT 2SM FEW008 BKN010 BKN019 14/13 A2974 RMK AO1 SLP060
SPECI CYNL 120831Z AUTO 29011G18KT 1 1/2SM FEW008 BKN010 BKN016 14/12 A2974 RMK AO1 SLP059
SPECI CYNL 120830Z AUTO 29011G20KT 1 3/4SM BKN010 OVC020 14/12 A2974 RMK AO1 SLP059
SPECI CYNL 120827Z AUTO 29011G20KT 2SM FEW008 BKN010 BKN014 14/12 A2974 RMK AO1 SLP058
SPECI CYNL 120821Z AUTO 29012G20KT 3SM SCT008 BKN010 OVC014 14/12 A2974 RMK AO1 SLP058
SPECI CYNL 120817Z AUTO 29010G18KT 2SM FEW008 SCT010 OVC014 14/13 A2973 RMK AO1 SLP056
SPECI CYNL 120812Z AUTO 29011G18KT 2 1/2SM SCT010 BKN014 OVC017 14/12 A2973 RMK AO1 SLP055
SPECI CYNL 120811Z AUTO 28011G18KT 3SM SCT010 BKN014 OVC017 14/12 A2973 RMK AO1 SLP054
SPECI CYNL 120810Z AUTO 28009G18KT 3SM SCT011 OVC015 14/12 A2973 RMK AO1 SLP054
SPECI CYNL 120803Z AUTO 30009G20KT 7SM BKN014 OVC018 15/12 A2972 RMK AO1 SLP052
METAR CYNL 120800Z AUTO 30012G20KT 9SM BKN015 OVC022 15/11 A2972 RMK AO1 SLP052
METAR CYNL 120700Z AUTO 29014G25KT 9SM BKN019 BKN029 16/12 A2971 RMK AO1 SLP045
METAR CYNL 120600Z AUTO 28013G20KT 9SM OVC023 17/11 A2970 RMK AO1 SLP044
SPECI CYNL 120531Z AUTO 27012G19KT 9SM OVC024 17/11 A2971 RMK AO1 SLP044
METAR CYNL 120500Z AUTO 27010G24KT 9SM OVC027 17/11 A2971 RMK AO1 SLP044
SPECI CYNL 120428Z AUTO 27012G20KT 9SM OVC025 17/11 A2972 RMK AO1 SLP049
METAR CYNL 120400Z AUTO 26013G19KT 9SM OVC024 17/11 A2972 RMK AO1 SLP050
SPECI CYNL 120343Z AUTO 26010G16KT 9SM BKN026 OVC074 17/11 A2972 RMK AO1 SLP052
METAR CYNL 120300Z AUTO 26008G19KT 9SM SCT021 OVC050 17/12 A2972 RMK AO1 SLP051
SPECI CYNL 120257Z AUTO 26010G20KT 9SM SCT021 BKN035 BKN050 17/12 A2972 RMK AO1 SLP053
SPECI CYNL 120256Z AUTO 27011G20KT 9SM BKN022 BKN050 17/12 A2972 RMK AO1 SLP053
SPECI CYNL 120254Z AUTO 27011G20KT 9SM SCT021 BKN027 BKN049 17/12 A2972 RMK AO1 SLP053
SPECI CYNL 120230Z AUTO 26011G19KT 9SM BKN021 BKN029 OVC039 17/12 A2972 RMK AO1 SLP053
SPECI CYNL 120223Z AUTO 26013G19KT 9SM FEW023 BKN029 BKN039 17/12 A2973 RMK AO1 SLP053
SPECI CYNL 120222Z AUTO 26012G19KT 9SM SCT024 BKN030 BKN040 17/12 A2973 RMK AO1 SLP053
SPECI CYNL 120218Z AUTO 27013G20KT 9SM BKN029 BKN041 18/12 A2972 RMK AO1 SLP052
METAR CYNL 120200Z AUTO 27014G22KT 9SM BKN045 18/12 A2972 RMK AO1 SLP050
METAR CYNL 120100Z AUTO 27011G18KT 9SM FEW047 19/13 A2971 RMK AO1 SLP050
METAR CYNL 120000Z AUTO 26007G20KT 9SM FEW015 SCT029 BKN040 17/14 A2972 RMK AO1 SLP054
SPECI CYNL 112317Z AUTO 26010G23KT 9SM SCT027 BKN037 OVC230 18/14 A2971 RMK AO1 PRESRR SLP051
SPECI CYNL 112316Z AUTO 27012G23KT 9SM BKN028 BKN038 OVC230 18/14 A2971 RMK AO1 PRESRR SLP051
SPECI CYNL 112315Z AUTO 27013G23KT 9SM SCT027 BKN032 BKN039 18/14 A2971 RMK AO1 PRESRR SLP051
SPECI CYNL 112314Z AUTO 27013G23KT 7SM BKN028 BKN039 OVC230 18/14 A2971 RMK AO1 PRESRR SLP051
SPECI CYNL 112313Z AUTO 26013G23KT 7SM SCT027 BKN032 BKN039 18/14 A2971 RMK AO1 PRESRR SLP051
METAR CYNL 112300Z AUTO 27014G27KT 9SM FEW022 BKN029 OVC066 19/14 A2971 RMK AO1 PRESRR SLP048
SPECI CYNL 112257Z AUTO 27018G26KT 9SM BKN030 BKN066 20/14 A2970 RMK AO1 SLP047
SPECI CYNL 112256Z AUTO 26016G24KT 9SM BKN029 BKN068 20/14 A2970 RMK AO1 SLP046
METAR CYNL 112200Z AUTO 25013G23KT 9SM FEW035 SCT072 22/13 A2968 RMK AO1 SLP038
METAR CYNL 112100Z AUTO 23013G23KT 9SM FEW039 SCT130 24/13 A2967 RMK AO1 SLP033
METAR CYNL 112000Z AUTO 26013G22KT 9SM FEW044 24/13 A2966 RMK AO1 SLP029
METAR CYNL 111900Z AUTO 26013G23KT 9SM FEW200 24/14 A2966 RMK AO1 SLP028
METAR CYNL 111800Z AUTO 25012G21KT 9SM CLR 25/13 A2966 RMK AO1 SLP024
METAR CYNL 111700Z AUTO 24013G19KT 9SM CLR 25/14 A2967 RMK AO1 SLP027
METAR CYNL 111600Z AUTO 22007KT 9SM CLR 23/15 A2967 RMK AO1 PRESFR SLP031
METAR CYNL 111500Z AUTO 21008KT 9SM CLR 22/16 A2969 RMK AO1 SLP038
METAR CYNL 111400Z AUTO 20010KT 9SM CLR 19/15 A2971 RMK AO1 SLP045
METAR CYNL 111300Z AUTO 19006KT 9SM CLR 18/15 A2973 RMK AO1 SLP050
METAR CYNL 111200Z AUTO 16006KT 9SM CLR 18/15 A2975 RMK AO1 PRESFR SLP055
METAR CYNL 111100Z AUTO 16006KT 9SM CLR 18/14 A2977 RMK AO1 SLP062
METAR CYNL 111000Z AUTO 14005KT 080V200 9SM CLR 17/14 A2976 RMK AO1 PRESFR SLP061
METAR CYNL 110900Z AUTO 13009KT 9SM 18/15 A2980 RMK AO1 PRESFR SLP071
METAR CYNL 110800Z AUTO VRB05KT 18/15 A2983 RMK AO1 PRESFR SLP083
SPECI CYNL 110740Z AUTO 26014G23KT 19/14 A2984 RMK AO1 SLP085
SPECI CYNL 110738Z AUTO 25014G23KT 2 1/2SM VV027 19/14 A2984 RMK AO1 SLP085
SPECI CYNL 110736Z AUTO 25016G23KT 1 3/4SM VV025 19/14 A2984 RMK AO1 SLP084
SPECI CYNL 110735Z AUTO 25016G23KT 1 1/2SM FEW007 SCT024 19/14 A2984 RMK AO1 SLP083
SPECI CYNL 110732Z AUTO 24011G19KT 2 1/2SM FEW007 20/15 A2984 RMK AO1 SLP083
SPECI CYNL 110728Z AUTO 24007G16KT 3SM FEW008 21/14 A2984 RMK AO1 SLP084
SPECI CYNL 110727Z AUTO 24009G16KT 2 1/2SM FEW008 21/14 A2985 RMK AO1 SLP085
SPECI CYNL 110726Z AUTO 23011G17KT 3SM FEW008 21/13 A2985 RMK AO1 SLP085
METAR CYNL 110700Z AUTO 18009KT 9SM CLR 20/12 A2987 RMK AO1 SLP092
METAR CYNL 110600Z AUTO 13005KT 9SM 20/11 A2986 RMK AO1 SLP092
METAR CYNL 110500Z AUTO 11005KT 9SM 21/10 A2987 RMK AO1 SLP095
METAR CYNL 110400Z AUTO 13006KT 9SM CLR 22/11 A2989 RMK AO1 SLP100
METAR CYNL 110300Z AUTO 14009KT 9SM CLR 24/11 A2990 RMK AO1 SLP103
METAR CYNL 110200Z AUTO 12005KT 9SM CLR 25/12 A2991 RMK AO1 SLP109
METAR CYNL 110100Z AUTO 10007KT 9SM CLR 26/12 A2992 RMK AO1 SLP114
METAR CYNL 110000Z AUTO 13008KT 9SM CLR 27/11 A2994 RMK AO1 SLP123
METAR CYNL 102300Z AUTO 13007KT 9SM CLR 28/10 A2996 RMK AO1 SLP129
METAR CYNL 102200Z AUTO 15005KT 9SM CLR 27/09 A2997 RMK AO1 SLP135
METAR CYNL 102100Z AUTO 15005KT 9SM CLR 27/09 A2998 RMK AO1 SLP140
METAR CYNL 102000Z AUTO 14007KT 9SM CLR 28/08 A3000 RMK AO1 SLP142
SPECI CYNL 101950Z AUTO 18006KT 5SM CLR 28/08 A3000 RMK AO1 PRESFR SLP144
SPECI CYNL 101948Z AUTO 17009KT 130V220 1SM CLR 27/08 A3000 RMK AO1 PRESFR SLP144
SPECI CYNL 101947Z AUTO 17009KT 130V210 1 1/2SM CLR 27/07 A3000 RMK AO1 PRESFR SLP145
METAR CYNL 101900Z AUTO 19006KT 9SM CLR 27/09 A3001 RMK AO1 PRESFR SLP148
METAR CYNL 101800Z AUTO 00000KT 9SM CLR 27/08 A3004 RMK AO1 SLP155
METAR CYNL 101700Z AUTO 00000KT 9SM CLR 26/11 A3005 RMK AO1 SLP161
METAR CYNL 101600Z AUTO 00000KT 9SM CLR 24/12 A3006 RMK AO1 SLP164
METAR CYNL 101500Z AUTO 14003KT 5SM CLR 21/12 A3007 RMK AO1 SLP167
METAR CYNL 101400Z AUTO 16003KT 3SM CLR 19/12 A3007 RMK AO1 SLP165
SPECI CYNL 101359Z AUTO 16003KT 3SM CLR 19/12 A3007 RMK AO1 SLP165
SPECI CYNL 101327Z AUTO 13003KT 2 1/2SM CLR 17/12 A3007 RMK AO1 SLP165
METAR CYNL 101300Z AUTO 08002KT 8SM CLR 16/12 A3006 RMK AO1 SLP165
METAR CYNL 101200Z AUTO 00000KT 9SM CLR 14/11 A3007 RMK AO1 SLP166
METAR CYNL 101100Z AUTO 00000KT 9SM CLR 12/10 A3006 RMK AO1 SLP166
METAR CYNL 101000Z AUTO 00000KT 9SM CLR 13/10 A3006 RMK AO1 SLP164
METAR CYNL 100900Z AUTO 00000KT 9SM CLR 15/11 A3005 RMK AO1 SLP160
METAR CYNL 100800Z AUTO 06003KT 9SM CLR 15/10 A3004 RMK AO1 SLP157
METAR CYNL 100700Z AUTO 00000KT 9SM CLR 16/11 A3004 RMK AO1 SLP155
METAR CYNL 100600Z AUTO 00000KT 9SM CLR 16/12 A3003 RMK AO1 SLP152
METAR CYNL 100500Z AUTO 01002KT 9SM CLR 18/10 A3002 RMK AO1 SLP148
METAR CYNL 100400Z AUTO 34004KT 9SM CLR 20/09 A3001 RMK AO1 SLP143
METAR CYNL 100300Z AUTO 01003KT 9SM CLR 24/08 A3000 RMK AO1 SLP137
METAR CYNL 100200Z AUTO 03004KT 9SM CLR 26/08 A2999 RMK AO1 SLP132
METAR CYNL 100100Z AUTO 03009KT 9SM CLR 27/07 A2998 RMK AO1 SLP131
METAR CYNL 100000Z AUTO 04011KT 9SM CLR 27/07 A2998 RMK AO1 SLP131
METAR CYNL 092300Z AUTO 31005KT 9SM CLR 29/07 A2997 RMK AO1 SLP128
METAR CYNL 092200Z AUTO 33010G16KT 9SM CLR 29/06 A2996 RMK AO1 SLP127
SPECI CYNL 092123Z AUTO 00012G19KT 9SM CLR 28/06 A2996 RMK AO1 WSHFT (21)23 SLP127
SPECI CYNL 092103Z AUTO 32013G24KT 290V350 9SM CLR 28/07 A2995 RMK AO1 WSHFT (21)03 SLP125
METAR CYNL 092100Z AUTO 34007G24KT 9SM CLR 28/05 A2995 RMK AO1 SLP125
METAR CYNL 092000Z AUTO 33010G18KT 9SM CLR 29/06 A2995 RMK AO1 SLP123
METAR CYNL 091900Z AUTO 33006G17KT 9SM CLR 28/12 A2994 RMK AO1 SLP119
METAR CYNL 091800Z AUTO 31010KT 280V340 9SM FEW210 27/13 A2992 RMK AO1 SLP113
METAR CYNL 091700Z AUTO 31009G16KT 9SM CLR 27/14 A2991 RMK AO1 SLP108
METAR CYNL 091600Z AUTO 32005KT 9SM CLR 26/14 A2990 RMK AO1 SLP104
METAR CYNL 091500Z AUTO 31008KT 9SM CLR 24/14 A2989 RMK AO1 SLP101
METAR CYNL 091400Z AUTO 30009KT 9SM CLR 22/13 A2987 RMK AO1 SLP095
METAR CYNL 091300Z AUTO 32007KT 9SM CLR 20/12 A2986 RMK AO1 SLP091
METAR CYNL 091200Z AUTO 29007KT 9SM CLR 19/12 A2984 RMK AO1 SLP083
METAR CYNL 091100Z AUTO 27005KT 9SM CLR 18/12 A2983 RMK AO1 SLP079
METAR CYNL 091000Z AUTO 26004KT 9SM CLR 16/14 A2981 RMK AO1 SLP076
METAR CYNL 090900Z AUTO 24004KT 9SM CLR 16/15 A2980 RMK AO1 SLP073
METAR CYNL 090800Z AUTO 22004KT 9SM CLR 17/15 A2980 RMK AO1 SLP070
METAR CYNL 090700Z AUTO 21006KT 9SM CLR 18/15 A2979 RMK AO1 SLP068
METAR CYNL 090600Z AUTO 19007KT 9SM FEW080 19/14 A2980 RMK AO1 SLP070
METAR CYNL 090500Z AUTO 18006KT 9SM CLR 20/13 A2979 RMK AO1 SLP068
METAR CYNL 090400Z AUTO 16008KT 9SM 22/14 A2979 RMK AO1 SLP066
METAR CYNL 090300Z AUTO VRB08KT 9SM FEW074 SCT130 24/11 A2980 RMK AO1 PRESRR SLP067
METAR CYNL 090200Z AUTO 21005KT 9SM FEW120 26/10 A2976 RMK AO1 SLP053
METAR CYNL 090100Z AUTO 24008G15KT 9SM CLR 29/10 A2976 RMK AO1 SLP054
METAR CYNL 090000Z AUTO 22008KT 9SM CLR 30/09 A2977 RMK AO1 SLP057
METAR CYNL 082300Z AUTO 22011KT 9SM CLR 30/09 A2977 RMK AO1 SLP060
METAR CYNL 082200Z AUTO 21010G18KT 9SM CLR 30/08 A2978 RMK AO1 SLP066
METAR CYNL 082100Z AUTO 22011KT 9SM CLR 29/09 A2979 RMK AO1 SLP069
METAR CYNL 082000Z AUTO 24011G18KT 9SM CLR 29/09 A2979 RMK AO1 SLP069
METAR CYNL 081900Z AUTO 20008G17KT 9SM CLR 28/10 A2978 RMK AO1 SLP067
METAR CYNL 081800Z AUTO 22009G15KT 9SM CLR 28/10 A2978 RMK AO1 SLP066
METAR CYNL 081700Z AUTO 21008KT 9SM CLR 27/10 A2978 RMK AO1 SLP068
METAR CYNL 081600Z AUTO 24010G16KT 9SM CLR 26/11 A2979 RMK AO1 SLP069
METAR CYNL 081500Z AUTO 24006KT 9SM CLR 24/13 A2979 RMK AO1 SLP070
METAR CYNL 081400Z AUTO 23006KT 9SM CLR 22/13 A2979 RMK AO1 SLP072
METAR CYNL 081300Z AUTO 23007KT 9SM CLR 19/12 A2980 RMK AO1 SLP074
METAR CYNL 081200Z AUTO 24004KT 9SM CLR 16/12 A2980 RMK AO1 SLP075
METAR CYNL 081100Z AUTO 25005KT 9SM CLR 14/12 A2979 RMK AO1 SLP076
METAR CYNL 081000Z AUTO 24005KT 9SM CLR 14/12 A2979 RMK AO1 SLP073
METAR CYNL 080900Z AUTO 23005KT 9SM CLR 15/11 A2979 RMK AO1 SLP072
METAR CYNL 080800Z AUTO 22005KT 9SM FEW096 16/11 A2979 RMK AO1 SLP074
METAR CYNL 080700Z AUTO 20004KT 9SM FEW120 17/11 A2979 RMK AO1 SLP072
METAR CYNL 080600Z AUTO 26007KT 190V320 9SM FEW074 17/10 A2978 RMK AO1 SLP072
METAR CYNL 080500Z AUTO 18003KT 9SM SCT120 19/11 A2978 RMK AO1 SLP070
METAR CYNL 080400Z AUTO 20003KT 9SM FEW072 SCT120 20/11 A2978 RMK AO1 SLP070
METAR CYNL 080300Z AUTO 20004KT 9SM SCT072 BKN090 21/11 A2978 RMK AO1 SLP070
METAR CYNL 080200Z AUTO 21003KT 9SM FEW072 23/11 A2979 RMK AO1 SLP072
METAR CYNL 080100Z AUTO 22005KT 9SM SCT074 25/10 A2980 RMK AO1 SLP075
METAR CYNL 080000Z AUTO 21006KT 9SM CLR 25/10 A2981 RMK AO1 SLP080
METAR CYNL 072300Z AUTO 21006KT 9SM CLR 25/09 A2982 RMK AO1 SLP083
METAR CYNL 072200Z AUTO 21008KT 9SM CLR 25/09 A2982 RMK AO1 SLP085
METAR CYNL 072100Z AUTO 26006KT 9SM FEW190 24/09 A2984 RMK AO1 SLP093
METAR CYNL 072000Z AUTO 22005KT 9SM FEW054 23/09 A2985 RMK AO1 SLP097
METAR CYNL 071900Z AUTO 24008KT 9SM FEW074 22/10 A2987 RMK AO1 PRESFR SLP105
METAR CYNL 071800Z AUTO 23007KT 9SM FEW039 SCT240 21/11 A2989 RMK AO1 SLP114
METAR CYNL 071700Z AUTO 20008G15KT 9SM FEW031 SCT068 20/11 A2990 RMK AO1 SLP119
METAR CYNL 071600Z AUTO 21005KT 9SM FEW029 SCT062 BKN070 19/11 A2992 RMK AO1 PRESFR SLP124
METAR CYNL 071500Z AUTO 23006KT 9SM OVC070 18/11 A2994 RMK AO1 SLP130
METAR CYNL 071400Z AUTO 23007KT 9SM OVC068 16/10 A2995 RMK AO1 SLP134
METAR CYNL 071300Z AUTO 22006KT 9SM OVC066 15/10 A2997 RMK AO1 SLP139
METAR CYNL 071200Z AUTO 23005KT 9SM OVC064 15/09 A2998 RMK AO1 SLP144
METAR CYNL 071100Z AUTO 23005KT 9SM OVC060 14/09 A2999 RMK AO1 SLP148
METAR CYNL 071000Z AUTO 23005KT 9SM FEW043 OVC062 14/09 A3001 RMK AO1 SLP153
METAR CYNL 070900Z AUTO 22005KT 9SM OVC058 13/08 A3002 RMK AO1 SLP159
METAR CYNL 070800Z AUTO 22004KT 9SM OVC056 12/08 A3003 RMK AO1 SLP163
METAR CYNL 070700Z AUTO 22004KT 9SM CLR 12/08 A3004 RMK AO1 SLP168
METAR CYNL 070600Z AUTO 23004KT 9SM CLR 13/07 A3005 RMK AO1 SLP171
METAR CYNL 070500Z AUTO 25004KT 9SM CLR 14/07 A3007 RMK AO1 SLP176
METAR CYNL 070400Z AUTO 22004KT 9SM CLR 16/05 A3007 RMK AO1 SLP174
METAR CYNL 070300Z AUTO 24004KT 9SM CLR 19/05 A3007 RMK AO1 SLP175
METAR CYNL 070200Z AUTO 22008G15KT 9SM CLR 21/02 A3008 RMK AO1 SLP178
METAR CYNL 070100Z AUTO 24007KT 9SM CLR 21/02 A3010 RMK AO1 PRESFR SLP184
METAR CYNL 070000Z AUTO 24009G15KT 9SM CLR 21/02 A3012 RMK AO1 SLP193
METAR CYNL 062300Z AUTO 19009KT 9SM FEW200 21/03 A3014 RMK AO1 PRESFR SLP204
METAR CYNL 062200Z AUTO 25008KT 200V290 9SM CLR 20/02 A3016 RMK AO1 SLP214
METAR CYNL 062100Z AUTO 24010KT 9SM CLR 20/02 A3018 RMK AO1 PRESFR SLP221
METAR CYNL 062000Z AUTO 21008KT 9SM CLR 20/02 A3021 RMK AO1 PRESFR SLP230
METAR CYNL 061900Z AUTO 24006G15KT 9SM CLR 19/03 A3023 RMK AO1 PRESFR SLP238
METAR CYNL 061800Z AUTO 23006KT 200V260 9SM CLR 18/03 A3025 RMK AO1 PRESFR SLP248
METAR CYNL 061700Z AUTO 23005KT 180V280 9SM CLR 18/05 A3027 RMK AO1 SLP254
METAR CYNL 061600Z AUTO 21006KT 9SM CLR 16/04 A3029 RMK AO1 SLP260
METAR CYNL 061500Z AUTO 23007KT 9SM CLR 15/04 A3030 RMK AO1 SLP263
METAR CYNL 061400Z AUTO 21007KT 9SM CLR 14/03 A3032 RMK AO1 SLP268
METAR CYNL 061300Z AUTO 23004KT 9SM CLR 12/05 A3033 RMK AO1 SLP272
METAR CYNL 061200Z AUTO 23004KT 9SM CLR 08/06 A3034 RMK AO1 SLP277
SPECI CYNL 061109Z AUTO 24004KT 9SM CLR 06/06 A3034 RMK AO1 SLP280
SPECI CYNL 061108Z AUTO 24004KT 2SM CLR 06/06 A3034 RMK AO1 SLP281
METAR CYNL 061100Z AUTO 24003KT 3/8SM CLR 06/06 A3034 RMK AO1 SLP281
SPECI CYNL 061056Z AUTO 24003KT 1/2SM CLR 06/06 A3034 RMK AO1 SLP282
SPECI CYNL 061053Z AUTO 24004KT 3SM CLR 06/06 A3034 RMK AO1 SLP282
SPECI CYNL 061052Z AUTO 24004KT 3/4SM CLR 06/06 A3034 RMK AO1 SLP282
SPECI CYNL 061051Z AUTO 24004KT 3/8SM CLR 06/06 A3034 RMK AO1 SLP282
SPECI CYNL 061038Z AUTO 24004KT 1/8SM CLR 06/06 A3035 RMK AO1 SLP283
SPECI CYNL 061033Z AUTO 24004KT 5/8SM CLR 06/06 A3035 RMK AO1 SLP283
SPECI CYNL 061032Z AUTO 24004KT 1SM CLR 06/06 A3035 RMK AO1 SLP283
SPECI CYNL 061031Z AUTO 24004KT 3/4SM CLR 06/06 A3035 RMK AO1 SLP283
SPECI CYNL 061028Z AUTO 24003KT 5/8SM CLR 06/06 A3035 RMK AO1 SLP282
SPECI CYNL 061027Z AUTO 25003KT 1SM CLR 06/06 A3034 RMK AO1 SLP282
METAR CYNL 061000Z AUTO 25004KT 9SM CLR 06/06 A3034 RMK AO1 SLP282
METAR CYNL 060900Z AUTO 24004KT 9SM CLR 06/05 A3035 RMK AO1 SLP284
SPECI CYNL 060808Z AUTO 24004KT 7SM CLR 06/06 A3035 RMK AO1 SLP284
SPECI CYNL 060807Z AUTO 24004KT 1 1/2SM CLR 06/05 A3035 RMK AO1 SLP284
SPECI CYNL 060806Z AUTO 24004KT 5/8SM CLR 06/05 A3035 RMK AO1 SLP284
SPECI CYNL 060805Z AUTO 25004KT 3/4SM CLR 06/06 A3035 RMK AO1 SLP284
SPECI CYNL 060804Z AUTO 25004KT 2SM CLR 06/05 A3035 RMK AO1 SLP284
METAR CYNL 060800Z AUTO 24004KT 9SM CLR 06/05 A3035 RMK AO1 SLP284
METAR CYNL 060700Z AUTO 20003KT 9SM CLR 05/05 A3035 RMK AO1 SLP287
METAR CYNL 060600Z AUTO 23003KT 9SM CLR 06/04 A3035 RMK AO1 SLP286
METAR CYNL 060500Z AUTO 00000KT 9SM CLR 08/03 A3035 RMK AO1 SLP285
METAR CYNL 060400Z AUTO 00000KT 9SM CLR 11/03 A3035 RMK AO1 SLP283
METAR CYNL 060300Z AUTO 12002KT 9SM CLR 14/03 A3035 RMK AO1 SLP280
METAR CYNL 060200Z AUTO 11007KT 9SM CLR 15/02 A3035 RMK AO1 SLP280
METAR CYNL 060100Z AUTO 13005KT 9SM CLR 15/02 A3035 RMK AO1 SLP281
METAR CYNL 060000Z AUTO 09003KT 9SM CLR 16/03 A3035 RMK AO1 SLP282
METAR CYNL 052300Z AUTO 09006KT 060V120 9SM CLR 15/02 A3036 RMK AO1 SLP285
METAR CYNL 052200Z AUTO 12009KT 090V160 9SM CLR 15/03 A3035 RMK AO1 SLP285
METAR CYNL 052100Z AUTO 08008KT 9SM CLR 14/03 A3035 RMK AO1 SLP284
METAR CYNL 052000Z AUTO 10007KT 070V140 9SM CLR 14/02 A3035 RMK AO1 SLP286
METAR CYNL 051900Z AUTO 09008KT 050V130 9SM CLR 13/03 A3035 RMK AO1 SLP285
METAR CYNL 051800Z AUTO 09009KT 9SM CLR 12/02 A3035 RMK AO1 SLP285
METAR CYNL 051700Z AUTO 07008KT 9SM CLR 11/02 A3034 RMK AO1 SLP282
METAR CYNL 051600Z AUTO 06010KT 9SM CLR 10/03 A3033 RMK AO1 SLP282
METAR CYNL 051500Z AUTO 07011KT 9SM CLR 09/02 A3032 RMK AO1 SLP280
METAR CYNL 051400Z AUTO 06009KT 9SM CLR 08/03 A3031 RMK AO1 SLP278
METAR CYNL 051300Z AUTO 08009KT 9SM CLR 08/03 A3029 RMK AO1 PRESRR SLP271
METAR CYNL 051200Z AUTO 05006KT 9SM CLR 06/04 A3028 RMK AO1 SLP266
METAR CYNL 051100Z AUTO 06006KT 9SM SCT140 07/05 A3025 RMK AO1 SLP258
METAR CYNL 051000Z AUTO 05006KT 9SM CLR 07/05 A3024 RMK AO1 SLP252
METAR CYNL 050900Z AUTO 06005KT 9SM SCT042 07/06 A3023 RMK AO1 SLP248
METAR CYNL 050800Z AUTO 06008KT 9SM FEW022 OVC038 08/06 A3021 RMK AO1 SLP241
SPECI CYNL 050745Z AUTO 06008KT 9SM SCT018 OVC039 08/06 A3021 RMK AO1 SLP240
SPECI CYNL 050725Z AUTO 06009KT 9SM SCT011 OVC018 08/06 A3021 RMK AO1 SLP239
METAR CYNL 050700Z AUTO 05007KT 9SM OVC010 08/07 A3020 RMK AO1 SLP237
SPECI CYNL 050622Z AUTO 05008KT 9SM SCT010 OVC014 08/07 A3019 RMK AO1 SLP235
METAR CYNL 050600Z AUTO 06007KT 9SM FEW009 OVC015 08/07 A3019 RMK AO1 SLP233
SPECI CYNL 050541Z AUTO 06008KT 9SM FEW008 SCT011 OVC015 08/07 A3018 RMK AO1 SLP230
SPECI CYNL 050537Z AUTO 05007KT 9SM FEW008 SCT011 BKN014 08/07 A3018 RMK AO1 SLP230